Another Hard Day at the Office Weather Stats

 
 
 

High monthly outside Temperature, 22.8 , C
Low monthly outside Temperature, -1.0 , C
High yearly outside Temperature, 30.9 , C
Low yearly outside Temperature, -2.2 , C

Low monthly barometer, 1001.1 , mb
High monthly barometer, 1028.0 , mb
Low yearly barometer, 975.0 , mb
High yearly barometer 1041.1 , mb

High wind speed, 25.0 , mph
Time of High wind speed, 21:37 , mph
High monthly wind speed, 47.0 , mph
High yearly wind speed, 55.0 , mph

 

 




3126
                    Temp     Hi    Low   Out    Dew  Wind  Wind   Wind    Hi    Hi   Wind   Heat    THW                Rain    Heat    Cool    In     In    In     In     In   In Air  Wind  Wind    ISS   Arc.
  Date    Time     Out   Temp   Temp   Hum    Pt. Speed   Dir    Run Speed   Dir  Chill  Index  Index   Bar    Rain  Rate    D-D     D-D    Temp   Hum    Dew   Heat    EMC Density  Samp   Tx   Recept  Int.
---------------------------------------------------------------------------------------------------------------------------------------------------------------------------------------------------------------
15/07/19   0:05   16.4   16.4   16.4    80   12.9   0.0   ---   0.00   0.0   ---   16.4   16.4   16.4  1022.0  0.00  0.00   0.007   0.000   24.7    53   14.5   24.8   9.65  .0735    115    1    100.0    5 
15/07/19   0:10   16.4   16.4   16.4    80   12.9   1.0     E   0.08   5.0     E   16.4   16.4   16.4  1022.1  0.00  0.00   0.007   0.000   24.7    53   14.5   24.8   9.65  .0735    117    1    100.0    5 
15/07/19   0:15   16.4   16.4   16.4    80   13.0   2.0   ENE   0.17   7.0     E   16.4   16.5   16.5  1022.0  0.00  0.00   0.007   0.000   24.7    52   14.2   24.8   9.52  .0735    115    1    100.0    5 
15/07/19   0:20   16.4   16.4   16.4    80   13.0   1.0   ENE   0.08   4.0   ENE   16.4   16.5   16.5  1022.0  0.00  0.00   0.007   0.000   24.6    53   14.4   24.7   9.65  .0735    117    1    100.0    5 
15/07/19   0:25   16.5   16.5   16.4    80   13.0   0.0   ENE   0.00   4.0   ENE   16.5   16.6   16.6  1022.1  0.00  0.00   0.006   0.000   24.6    53   14.3   24.7   9.65  .0735    117    1    100.0    5 
15/07/19   0:30   16.5   16.5   16.4    80   13.0   0.0   ENE   0.00   5.0   ENE   16.5   16.6   16.6  1022.2  0.00  0.00   0.006   0.000   24.5    53   14.3   24.6   9.65  .0735    116    1    100.0    5 
15/07/19   0:35   16.4   16.5   16.4    80   13.0   1.0   ENE   0.08   4.0   ENE   16.4   16.5   16.5  1022.2  0.00  0.00   0.007   0.000   24.4    53   14.2   24.6   9.65  .0736    116    1    100.0    5 
15/07/19   0:40   16.4   16.4   16.4    80   12.9   0.0   ENE   0.00   3.0   ENE   16.4   16.4   16.4  1022.2  0.00  0.00   0.007   0.000   24.3    53   14.1   24.4   9.65  .0736    115    1    100.0    5 
15/07/19   0:45   16.3   16.4   16.3    80   12.9   0.0   ENE   0.00   4.0   ENE   16.3   16.4   16.4  1022.2  0.00  0.00   0.007   0.000   24.2    54   14.3   24.4   9.84  .0736    116    1    100.0    5 
15/07/19   0:50   16.3   16.3   16.3    81   13.0   1.0   ENE   0.08   3.0   ENE   16.3   16.3   16.3  1022.1  0.00  0.00   0.007   0.000   24.2    54   14.3   24.4   9.84  .0736    115    1    100.0    5 
15/07/19   0:55   16.3   16.3   16.2    80   12.8   1.0   ENE   0.08   4.0   ENE   16.3   16.3   16.3  1022.1  0.00  0.00   0.007   0.000   24.1    54   14.2   24.3   9.84  .0736    116    1    100.0    5 
15/07/19   1:00   16.2   16.2   16.2    80   12.8   1.0   ENE   0.08   4.0   ENE   16.2   16.2   16.2  1022.1  0.00  0.00   0.007   0.000   24.1    54   14.2   24.3   9.84  .0736    117    1    100.0    5 
15/07/19   1:05   16.1   16.2   16.1    80   12.7   1.0   ENE   0.08   5.0   ENE   16.1   16.1   16.1  1022.1  0.00  0.00   0.008   0.000   24.0    54   14.1   24.2   9.85  .0737    116    1    100.0    5 
15/07/19   1:10   16.0   16.1   16.0    80   12.5   0.0   ENE   0.00   4.0   ENE   16.0   16.0   16.0  1022.0  0.00  0.00   0.008   0.000   23.9    54   14.1   24.2   9.85  .0737    117    1    100.0    5 
15/07/19   1:15   15.9   16.0   15.9    80   12.4   1.0   ENE   0.08   5.0   ENE   15.9   15.9   15.9  1021.9  0.00  0.00   0.008   0.000   23.9    54   14.0   24.1   9.85  .0737    116    1    100.0    5 
15/07/19   1:20   15.8   15.9   15.8    80   12.3   0.0   ENE   0.00   2.0   ENE   15.8   15.7   15.7  1022.0  0.00  0.00   0.009   0.000   23.8    54   13.9   24.0   9.85  .0737    117    1    100.0    5 
15/07/19   1:25   15.7   15.8   15.7    80   12.3   0.0   ENE   0.00   1.0   ENE   15.7   15.7   15.7  1022.0  0.00  0.00   0.009   0.000   23.8    54   14.0   24.1   9.85  .0737    118    1    100.0    5 
15/07/19   1:30   15.6   15.7   15.6    80   12.2   0.0   ---   0.00   0.0   ---   15.6   15.6   15.6  1022.0  0.00  0.00   0.009   0.000   23.8    54   14.0   24.1   9.85  .0737    117    1    100.0    5 
15/07/19   1:35   15.5   15.6   15.5    81   12.3   0.0   ---   0.00   0.0   ---   15.5   15.4   15.4  1022.0  0.00  0.00   0.010   0.000   23.8    54   13.9   24.0   9.85  .0737    117    1    100.0    5 
15/07/19   1:40   15.4   15.5   15.4    81   12.2   0.0   ENE   0.00   2.0   ENE   15.4   15.4   15.4  1022.0  0.00  0.00   0.010   0.000   23.8    54   13.9   24.0   9.85  .0737    116    1    100.0    5 
15/07/19   1:45   15.3   15.4   15.3    81   12.1   1.0   ENE   0.08   8.0    NE   15.3   15.3   15.3  1021.9  0.00  0.00   0.010   0.000   23.8    54   13.9   24.0   9.85  .0737    115    1    100.0    5 
15/07/19   1:50   15.2   15.3   15.2    81   11.9   3.0    NE   0.25   7.0    NE   15.2   15.1   15.1  1022.0  0.00  0.00   0.011   0.000   23.7    53   13.6   23.8   9.66  .0738    117    1    100.0    5 
15/07/19   1:55   15.0   15.2   15.0    81   11.8   3.0    NE   0.25   7.0   NNE   15.0   14.9   14.9  1022.0  0.00  0.00   0.012   0.000   23.7    52   13.3   23.8   9.56  .0738    117    1    100.0    5 
15/07/19   2:00   14.9   15.0   14.9    81   11.7   3.0   NNE   0.25   6.0   NNE   14.9   14.8   14.8  1022.1  0.00  0.00   0.012   0.000   23.6    52   13.2   23.7   9.56  .0738    115    1    100.0    5 
15/07/19   2:05   14.9   14.9   14.9    81   11.7   1.0   NNE   0.08   6.0   NNE   14.9   14.8   14.8  1022.2  0.00  0.00   0.012   0.000   23.5    53   13.4   23.6   9.68  .0739    117    1    100.0    5 
15/07/19   2:10   14.8   14.9   14.8    81   11.6   1.0   NNE   0.08   3.0   NNE   14.8   14.7   14.7  1022.2  0.00  0.00   0.012   0.000   23.3    53   13.2   23.3   9.69  .0739    117    1    100.0    5 
15/07/19   2:15   14.7   14.8   14.7    81   11.5   2.0   NNE   0.17   6.0   NNE   14.7   14.6   14.6  1022.2  0.00  0.00   0.013   0.000   23.3    53   13.2   23.3   9.69  .0739    117    1    100.0    5 
15/07/19   2:20   14.5   14.7   14.5    80   11.1   2.0   NNE   0.17   6.0   NNE   14.5   14.4   14.4  1022.1  0.00  0.00   0.013   0.000   23.2    52   12.8   23.1   9.58  .0740    116    1    100.0    5 
15/07/19   2:25   14.3   14.5   14.3    80   10.9   1.0   NNE   0.08   5.0   NNE   14.3   14.2   14.2  1022.0  0.00  0.00   0.014   0.000   23.1    52   12.7   22.9   9.58  .0740    118    1    100.0    5 
15/07/19   2:30   14.2   14.3   14.2    81   11.0   1.0   NNE   0.08   6.0   NNE   14.2   14.1   14.1  1021.9  0.00  0.00   0.014   0.000   22.9    52   12.6   22.8   9.58  .0740    113    1     99.1    5 
15/07/19   2:35   14.1   14.2   14.1    80   10.7   2.0   NNE   0.17   5.0   NNE   14.1   13.9   13.9  1021.8  0.00  0.00   0.015   0.000   22.8    51   12.2   22.6   9.39  .0741    116    1    100.0    5 
15/07/19   2:40   13.9   14.1   13.9    80   10.5   2.0   NNE   0.17   6.0   NNE   13.9   13.8   13.8  1021.8  0.00  0.00   0.015   0.000   22.7    51   12.1   22.5   9.39  .0741    117    1    100.0    5 
15/07/19   2:45   13.8   13.9   13.8    80   10.4   2.0   NNE   0.17   5.0   NNE   13.8   13.7   13.7  1021.7  0.00  0.00   0.016   0.000   22.6    51   12.0   22.3   9.40  .0741    117    1    100.0    5 
15/07/19   2:50   13.8   13.8   13.8    80   10.4   2.0   NNE   0.17   5.0   NNE   13.8   13.6   13.6  1021.7  0.00  0.00   0.016   0.000   22.5    51   11.9   22.2   9.40  .0742    117    1    100.0    5 
15/07/19   2:55   13.7   13.8   13.7    80   10.3   2.0   NNE   0.17   8.0   NNE   13.7   13.6   13.6  1021.8  0.00  0.00   0.016   0.000   22.4    51   11.8   22.0   9.40  .0742    117    1    100.0    5 
15/07/19   3:00   13.7   13.7   13.7    80   10.3   3.0   NNE   0.25   7.0   NNE   13.7   13.5   13.5  1021.7  0.00  0.00   0.016   0.000   22.3    51   11.7   21.9   9.41  .0742    116    1    100.0    5 
15/07/19   3:05   13.6   13.7   13.6    80   10.2   3.0   NNE   0.25   8.0   NNE   13.6   13.4   13.4  1021.7  0.00  0.00   0.016   0.000   22.3    51   11.7   21.8   9.41  .0742    117    1    100.0    5 
15/07/19   3:10   13.6   13.6   13.6    80   10.2   3.0   NNE   0.25   8.0   NNE   13.6   13.4   13.4  1021.6  0.00  0.00   0.017   0.000   22.2    50   11.2   21.6   9.25  .0743    116    1    100.0    5 
15/07/19   3:15   13.5   13.5   13.5    80   10.1   2.0   NNE   0.17   6.0   NNE   13.5   13.3   13.3  1021.6  0.00  0.00   0.017   0.000   22.1    51   11.4   21.5   9.42  .0743    117    1    100.0    5 
15/07/19   3:20   13.4   13.5   13.4    80   10.1   2.0   NNE   0.17   5.0   NNE   13.4   13.3   13.3  1021.7  0.00  0.00   0.017   0.000   21.9    51   11.3   21.3   9.42  .0743    116    1    100.0    5 
15/07/19   3:25   13.4   13.4   13.3    80   10.0   2.0   NNE   0.17   6.0   NNE   13.4   13.2   13.2  1021.7  0.00  0.00   0.017   0.000   21.8    52   11.5   21.2   9.62  .0744    117    1    100.0    5 
15/07/19   3:30   13.3   13.3   13.3    80   10.0   2.0   NNE   0.17   5.0   NNE   13.3   13.2   13.2  1021.6  0.00  0.00   0.017   0.000   21.8    52   11.5   21.2   9.63  .0744    117    1    100.0    5 
15/07/19   3:35   13.3   13.3   13.3    80    9.9   0.0   NNE   0.00   4.0   NNE   13.3   13.1   13.1  1021.6  0.00  0.00   0.018   0.000   21.7    53   11.7   21.1   9.81  .0744    114    1    100.0    5 
15/07/19   3:40   13.2   13.3   13.2    80    9.8   1.0   NNE   0.08   4.0   NNE   13.2   13.1   13.1  1021.6  0.00  0.00   0.018   0.000   21.7    52   11.4   21.1   9.63  .0744    117    1    100.0    5 
15/07/19   3:45   13.2   13.2   13.2    80    9.8   1.0   NNE   0.08   3.0   NNE   13.2   13.0   13.0  1021.7  0.00  0.00   0.018   0.000   21.7    52   11.4   21.1   9.63  .0744    116    1    100.0    5 
15/07/19   3:50   13.1   13.2   13.1    80    9.7   1.0   NNE   0.08   4.0   NNE   13.1   12.9   12.9  1021.7  0.00  0.00   0.018   0.000   21.7    52   11.4   21.1   9.63  .0744    117    1    100.0    5 
15/07/19   3:55   13.1   13.1   13.1    80    9.7   1.0   NNE   0.08   5.0   NNE   13.1   12.9   12.9  1021.7  0.00  0.00   0.018   0.000   21.8    52   11.5   21.2   9.63  .0744    116    1    100.0    5 
15/07/19   4:00   13.0   13.1   13.0    80    9.6   1.0   NNE   0.08   4.0   NNE   13.0   12.8   12.8  1021.7  0.00  0.00   0.019   0.000   21.8    52   11.5   21.2   9.63  .0744    117    1    100.0    5 
15/07/19   4:05   12.9   13.0   12.9    80    9.6   1.0   NNE   0.08   5.0   NNE   12.9   12.8   12.8  1021.8  0.00  0.00   0.019   0.000   21.8    52   11.5   21.2   9.63  .0744    117    1    100.0    5 
15/07/19   4:10   12.9   12.9   12.9    80    9.5   1.0   NNE   0.08   5.0   NNE   12.9   12.7   12.7  1021.7  0.00  0.00   0.019   0.000   21.8    52   11.5   21.2   9.63  .0744    116    1    100.0    5 
15/07/19   4:15   12.8   12.9   12.8    81    9.7   1.0   NNE   0.08   6.0   NNE   12.8   12.7   12.7  1021.7  0.00  0.00   0.019   0.000   21.8    52   11.5   21.2   9.63  .0744    116    1    100.0    5 
15/07/19   4:20   12.8   12.8   12.8    81    9.6   1.0   NNE   0.08   5.0   NNE   12.8   12.6   12.6  1021.7  0.00  0.00   0.019   0.000   21.8    52   11.5   21.2   9.62  .0744    116    1    100.0    5 
15/07/19   4:25   12.8   12.8   12.7    81    9.6   1.0   NNE   0.08   4.0   NNE   12.8   12.6   12.6  1021.7  0.00  0.00   0.019   0.000   21.8    52   11.5   21.2   9.63  .0744    116    1    100.0    5 
15/07/19   4:30   12.7   12.7   12.7    81    9.5   1.0   NNE   0.08   5.0   NNE   12.7   12.6   12.6  1021.8  0.00  0.00   0.019   0.000   21.8    52   11.5   21.2   9.63  .0744    117    1    100.0    5 
15/07/19   4:35   12.7   12.7   12.7    81    9.5   1.0   NNE   0.08   5.0   NNE   12.7   12.5   12.5  1021.7  0.00  0.00   0.020   0.000   21.8    52   11.5   21.2   9.63  .0744    117    1    100.0    5 
15/07/19   4:40   12.6   12.7   12.6    81    9.4   1.0   NNE   0.08   5.0   NNE   12.6   12.4   12.4  1021.7  0.00  0.00   0.020   0.000   21.8    52   11.5   21.2   9.63  .0744    116    1    100.0    5 
15/07/19   4:45   12.6   12.6   12.6    81    9.4   0.0   NNE   0.00   3.0   NNE   12.6   12.4   12.4  1021.7  0.00  0.00   0.020   0.000   21.7    52   11.4   21.1   9.63  .0744    115    1    100.0    5 
15/07/19   4:50   12.6   12.6   12.6    81    9.4   1.0   NNE   0.08   4.0   NNE   12.6   12.4   12.4  1021.7  0.00  0.00   0.020   0.000   21.7    52   11.4   21.1   9.63  .0744    116    1    100.0    5 
15/07/19   4:55   12.5   12.6   12.5    81    9.3   1.0     N   0.08   5.0   NNE   12.5   12.3   12.3  1021.8  0.00  0.00   0.020   0.000   21.7    51   11.1   21.0   9.43  .0744    116    1    100.0    5 
15/07/19   5:00   12.5   12.5   12.4    81    9.3   2.0     N   0.17   6.0     N   12.5   12.3   12.3  1021.7  0.00  0.00   0.020   0.000   21.7    51   11.1   20.9   9.43  .0744    117    1    100.0    5 
15/07/19   5:05   12.4   12.4   12.4    81    9.3   2.0     N   0.17   7.0     N   12.4   12.3   12.3  1021.6  0.00  0.00   0.020   0.000   21.6    51   11.0   20.8   9.43  .0745    117    1    100.0    5 
15/07/19   5:10   12.4   12.4   12.4    81    9.2   2.0     N   0.17   6.0     N   12.4   12.2   12.2  1021.7  0.00  0.00   0.021   0.000   21.4    51   10.9   20.7   9.44  .0745    116    1    100.0    5 
15/07/19   5:15   12.4   12.4   12.4    81    9.2   1.0     N   0.08   5.0     N   12.4   12.2   12.2  1021.7  0.00  0.00   0.021   0.000   21.3    52   11.1   20.6   9.64  .0745    117    1    100.0    5 
15/07/19   5:20   12.3   12.4   12.3    81    9.2   1.0     N   0.08   5.0     N   12.3   12.2   12.2  1021.8  0.00  0.00   0.021   0.000   21.2    52   11.0   20.4   9.65  .0746    115    1    100.0    5 
15/07/19   5:25   12.3   12.3   12.3    82    9.3   2.0     N   0.17   4.0     N   12.3   12.2   12.2  1021.8  0.00  0.00   0.021   0.000   21.1    52   10.9   20.3   9.65  .0746    117    1    100.0    5 
15/07/19   5:30   12.3   12.3   12.3    82    9.3   1.0   NNE   0.08   5.0   NNE   12.3   12.2   12.2  1021.7  0.00  0.00   0.021   0.000   21.1    53   11.1   20.3   9.85  .0746    117    1    100.0    5 
15/07/19   5:35   12.3   12.3   12.3    82    9.3   1.0   NNE   0.08   5.0   NNE   12.3   12.2   12.2  1021.8  0.00  0.00   0.021   0.000   21.0    53   11.1   20.2   9.85  .0746    117    1    100.0    5 
15/07/19   5:40   12.3   12.3   12.3    82    9.3   0.0   NNE   0.00   3.0   NNE   12.3   12.2   12.2  1021.8  0.00  0.00   0.021   0.000   21.0    53   11.1   20.2   9.85  .0746    116    1    100.0    5 
15/07/19   5:45   12.4   12.4   12.3    82    9.4   1.0   NNE   0.08   4.0   NNE   12.4   12.3   12.3  1021.8  0.00  0.00   0.021   0.000   21.0    53   11.1   20.2   9.85  .0746    117    1    100.0    5 
15/07/19   5:50   12.4   12.4   12.4    82    9.5   1.0   NNE   0.08   5.0   NNE   12.4   12.3   12.3  1021.8  0.00  0.00   0.020   0.000   21.1    53   11.1   20.3   9.85  .0746    117    1    100.0    5 
15/07/19   5:55   12.5   12.5   12.4    82    9.5   2.0   NNE   0.17   7.0   NNE   12.5   12.4   12.4  1021.8  0.00  0.00   0.020   0.000   21.1    53   11.1   20.3   9.85  .0746    116    1    100.0    5 
15/07/19   6:00   12.6   12.6   12.5    82    9.6   3.0     N   0.25   9.0     N   12.6   12.4   12.4  1021.9  0.00  0.00   0.020   0.000   21.0    53   11.1   20.2   9.85  .0746    117    1    100.0    5 
15/07/19   6:05   12.7   12.7   12.6    82    9.7   2.0   NNE   0.17   6.0     N   12.7   12.6   12.6  1021.8  0.00  0.00   0.020   0.000   20.9    53   11.0   20.2   9.86  .0746    117    1    100.0    5 
15/07/19   6:10   12.7   12.7   12.7    82    9.7   4.0   NNE   0.33  10.0   NNE   12.4   12.6   12.3  1021.8  0.00  0.00   0.020   0.000   20.9    53   11.0   20.2   9.86  .0746    117    1    100.0    5 
15/07/19   6:15   12.7   12.7   12.7    82    9.7   4.0   NNE   0.33  11.0   NNE   12.5   12.6   12.4  1021.8  0.00  0.00   0.019   0.000   20.9    52   10.7   20.1   9.66  .0747    115    1    100.0    5 
15/07/19   6:20   12.8   12.8   12.7    81    9.6   4.0   NNE   0.33   9.0   NNE   12.6   12.6   12.4  1021.8  0.00  0.00   0.019   0.000   20.8    52   10.6   20.1   9.66  .0747    116    1    100.0    5 
15/07/19   6:25   12.8   12.8   12.8    81    9.6   4.0   NNE   0.33  10.0   NNE   12.6   12.6   12.4  1021.8  0.00  0.00   0.019   0.000   20.8    52   10.6   20.0   9.66  .0747    117    1    100.0    5 
15/07/19   6:30   12.8   12.8   12.8    81    9.7   3.0   NNE   0.25  11.0   NNE   12.8   12.7   12.7  1021.8  0.00  0.00   0.019   0.000   20.7    52   10.5   20.0   9.66  .0747    116    1    100.0    5 
15/07/19   6:35   12.8   12.8   12.8    81    9.7   3.0   NNE   0.25  11.0   NNE   12.8   12.7   12.7  1021.8  0.00  0.00   0.019   0.000   20.7    52   10.5   19.9   9.67  .0747    117    1    100.0    5 
15/07/19   6:40   12.8   12.8   12.8    81    9.7   2.0   NNE   0.17   8.0   NNE   12.8   12.7   12.7  1021.7  0.00  0.00   0.019   0.000   20.6    52   10.4   19.9   9.67  .0748    118    1    100.0    5 
15/07/19   6:45   12.9   12.9   12.8    81    9.7   1.0   NNE   0.08   4.0   NNE   12.9   12.7   12.7  1021.8  0.00  0.00   0.019   0.000   20.5    53   10.6   19.9   9.87  .0748    117    1    100.0    5 
15/07/19   6:50   13.0   13.0   12.9    81    9.8   1.0   NNE   0.08   5.0   NNE   13.0   12.8   12.8  1021.7  0.00  0.00   0.019   0.000   20.4    53   10.5   19.8   9.88  .0748    114    1    100.0    5 
15/07/19   6:55   13.1   13.1   13.0    81    9.9   1.0   NNE   0.08   6.0   NNE   13.1   12.9   12.9  1021.8  0.00  0.00   0.018   0.000   20.3    53   10.4   19.7   9.88  .0748    117    1    100.0    5 
15/07/19   7:00   13.2   13.2   13.1    80    9.8   2.0   NNE   0.17   6.0   NNE   13.2   13.1   13.1  1021.7  0.00  0.00   0.018   0.000   20.3    53   10.4   19.7   9.88  .0748    117    1    100.0    5 
15/07/19   7:05   13.3   13.4   13.2    80   10.0   1.0   NNE   0.08   6.0   NNE   13.3   13.2   13.2  1021.8  0.00  0.00   0.017   0.000   20.3    53   10.4   19.7   9.88  .0748    116    1    100.0    5 
15/07/19   7:10   13.5   13.5   13.4    80   10.1   1.0   NNE   0.08   7.0   NNE   13.5   13.3   13.3  1021.8  0.00  0.00   0.017   0.000   20.3    53   10.4   19.7   9.88  .0748    117    1    100.0    5 
15/07/19   7:15   13.6   13.6   13.5    79   10.0   1.0   NNE   0.08   8.0   NNE   13.6   13.4   13.4  1021.8  0.00  0.00   0.016   0.000   20.2    53   10.3   19.6   9.88  .0749    116    1    100.0    5 
15/07/19   7:20   13.7   13.7   13.6    79   10.1   1.0   NNE   0.08   4.0   NNE   13.7   13.6   13.6  1021.7  0.00  0.00   0.016   0.000   20.2    53   10.3   19.6   9.88  .0749    117    1    100.0    5 
15/07/19   7:25   13.8   13.8   13.7    79   10.3   1.0   NNE   0.08   8.0    NE   13.8   13.7   13.7  1021.8  0.00  0.00   0.016   0.000   20.3    54   10.7   19.7  10.01  .0748    117    1    100.0    5 
15/07/19   7:30   13.9   13.9   13.8    79   10.4   2.0   NNE   0.17   6.0   NNE   13.9   13.8   13.8  1021.9  0.00  0.00   0.015   0.000   20.3    53   10.4   19.7   9.88  .0748    116    1    100.0    5 
15/07/19   7:35   14.1   14.1   13.9    78   10.3   1.0   NNE   0.08   7.0   NNE   14.1   13.9   13.9  1021.8  0.00  0.00   0.015   0.000   20.3    53   10.4   19.7   9.88  .0748    117    1    100.0    5 
15/07/19   7:40   14.2   14.2   14.1    78   10.4   3.0   NNE   0.25  11.0   NNE   14.2   14.1   14.1  1021.8  0.00  0.00   0.014   0.000   20.3    53   10.4   19.7   9.88  .0748    115    1    100.0    5 
15/07/19   7:45   14.3   14.3   14.2    77   10.4   3.0   NNE   0.25   9.0   NNE   14.3   14.1   14.1  1022.0  0.00  0.00   0.014   0.000   20.4    52   10.2   19.7   9.68  .0748    118    1    100.0    5 
15/07/19   7:50   14.4   14.4   14.3    76   10.2   4.0   NNE   0.33  11.0   NNE   14.4   14.2   14.2  1022.0  0.00  0.00   0.014   0.000   20.4    51   10.0   19.7   9.47  .0748    116    1    100.0    5 
15/07/19   7:55   14.5   14.5   14.4    76   10.3   1.0   NNE   0.08   8.0   NNE   14.5   14.3   14.3  1022.0  0.00  0.00   0.013   0.000   20.4    51    9.9   19.7   9.48  .0749    113    1     99.1    5 
15/07/19   8:00   14.6   14.6   14.5    75   10.2   1.0    NE   0.08   8.0    NE   14.6   14.3   14.3  1022.0  0.00  0.00   0.013   0.000   20.4    52   10.2   19.7   9.68  .0748    117    1    100.0    5 
15/07/19   8:05   14.8   14.8   14.6    75   10.4   1.0    NE   0.08   7.0    NE   14.8   14.5   14.5  1022.1  0.00  0.00   0.012   0.000   20.4    52   10.2   19.7   9.68  .0748    116    1    100.0    5 
15/07/19   8:10   14.8   14.8   14.8    73   10.0   2.0   NNE   0.17   8.0    NE   14.8   14.5   14.5  1022.2  0.00  0.00   0.012   0.000   20.4    51   10.0   19.7   9.47  .0748    117    1    100.0    5 
15/07/19   8:15   14.9   14.9   14.8    73   10.1   2.0   NNE   0.17   8.0   NNE   14.9   14.6   14.6  1022.2  0.00  0.00   0.012   0.000   20.5    51   10.0   19.8   9.47  .0748    117    1    100.0    5 
15/07/19   8:20   14.9   14.9   14.9    73   10.1   3.0    NE   0.25   7.0    NE   14.9   14.6   14.6  1022.2  0.00  0.00   0.012   0.000   20.5    51   10.0   19.8   9.47  .0748    117    1    100.0    5 
15/07/19   8:25   14.9   14.9   14.9    73   10.1   2.0   NNE   0.17   8.0   NNE   14.9   14.6   14.6  1022.2  0.00  0.00   0.012   0.000   20.5    50    9.7   19.7   9.27  .0749    117    1    100.0    5 
15/07/19   8:30   14.9   14.9   14.9    73   10.1   0.0   NNE   0.00   7.0   NNE   14.9   14.6   14.6  1022.2  0.00  0.00   0.012   0.000   20.5    51   10.0   19.8   9.47  .0748    116    1    100.0    5 
15/07/19   8:35   15.0   15.0   14.9    73   10.2   2.0    NE   0.17  10.0   ENE   15.0   14.7   14.7  1022.2  0.00  0.00   0.012   0.000   20.6    51   10.1   19.8   9.47  .0748    117    1    100.0    5 
15/07/19   8:40   15.1   15.1   15.0    73   10.3   2.0    NE   0.17  12.0   ENE   15.1   14.7   14.7  1022.3  0.00  0.00   0.011   0.000   20.6    52   10.4   19.9   9.67  .0748    116    1    100.0    5 
15/07/19   8:45   15.1   15.2   15.1    73   10.3   1.0    NE   0.08   7.0    NE   15.1   14.8   14.8  1022.3  0.00  0.00   0.011   0.000   20.7    52   10.5   19.9   9.67  .0748    117    1    100.0    5 
15/07/19   8:50   15.2   15.2   15.2    72   10.2   3.0    NE   0.25  11.0    NE   15.2   14.8   14.8  1022.3  0.00  0.00   0.011   0.000   20.8    51   10.3   20.0   9.46  .0748    117    1    100.0    5 
15/07/19   8:55   15.2   15.2   15.2    72   10.2   2.0   NNE   0.17  10.0   NNE   15.2   14.9   14.9  1022.3  0.00  0.00   0.011   0.000   20.8    52   10.6   20.1   9.66  .0747    117    1    100.0    5 
15/07/19   9:00   15.3   15.3   15.2    72   10.3   4.0   ENE   0.33  11.0   ENE   15.3   14.9   14.9  1022.3  0.00  0.00   0.011   0.000   20.8    52   10.6   20.1   9.66  .0747    117    1    100.0    5 
15/07/19   9:05   15.4   15.4   15.3    72   10.4   1.0   ENE   0.08   7.0   ENE   15.4   15.1   15.1  1022.4  0.00  0.00   0.010   0.000   20.9    52   10.7   20.2   9.66  .0747    116    1    100.0    5 
15/07/19   9:10   15.6   15.6   15.4    72   10.5   1.0   ENE   0.08   8.0    NE   15.6   15.3   15.3  1022.4  0.00  0.00   0.010   0.000   21.0    52   10.8   20.2   9.65  .0747    117    1    100.0    5 
15/07/19   9:15   15.6   15.6   15.6    72   10.6   1.0   ENE   0.08   7.0   ENE   15.6   15.3   15.3  1022.4  0.00  0.00   0.009   0.000   21.1    51   10.6   20.2   9.45  .0747    116    1    100.0    5 
15/07/19   9:20   15.7   15.7   15.6    71   10.5   2.0   ENE   0.17   7.0    NE   15.7   15.4   15.4  1022.5  0.00  0.00   0.009   0.000   21.2    51   10.7   20.3   9.45  .0746    116    1    100.0    5 
15/07/19   9:25   15.8   15.8   15.7    71   10.5   2.0    NE   0.17   8.0    NE   15.8   15.4   15.4  1022.5  0.00  0.00   0.009   0.000   21.3    51   10.8   20.5   9.44  .0746    117    1    100.0    5 
15/07/19   9:30   15.8   15.8   15.8    71   10.5   2.0    NE   0.17  10.0   ENE   15.8   15.4   15.4  1022.5  0.00  0.00   0.009   0.000   21.4    51   10.8   20.6   9.44  .0746    117    1    100.0    5 
15/07/19   9:35   15.8   15.8   15.8    71   10.6   1.0   ENE   0.08   6.0   ENE   15.8   15.6   15.6  1022.4  0.00  0.00   0.009   0.000   21.4    51   10.9   20.7   9.44  .0746    117    1    100.0    5 
15/07/19   9:40   15.9   15.9   15.8    71   10.7   1.0   ENE   0.08   8.0    NE   15.9   15.7   15.7  1022.4  0.00  0.00   0.008   0.000   21.5    50   10.6   20.7   9.25  .0746    117    1    100.0    5 
15/07/19   9:45   15.9   16.0   15.9    70   10.4   2.0   NNE   0.17   8.0   NNE   15.9   15.6   15.6  1022.5  0.00  0.00   0.008   0.000   21.6    50   10.7   20.7   9.25  .0745    117    1    100.0    5 
15/07/19   9:50   15.8   15.9   15.8    70   10.4   1.0    NE   0.08   6.0   NNE   15.8   15.5   15.5  1022.4  0.00  0.00   0.009   0.000   21.6    49   10.4   20.7   9.05  .0746    118    1    100.0    5 
15/07/19   9:55   15.8   15.9   15.8    71   10.6   1.0    NE   0.08   7.0    NE   15.8   15.6   15.6  1022.4  0.00  0.00   0.009   0.000   21.6    50   10.7   20.7   9.25  .0745    117    1    100.0    5 
15/07/19  10:00   15.9   15.9   15.9    71   10.7   1.0    NE   0.08   7.0    NE   15.9   15.7   15.7  1022.3  0.00  0.00   0.008   0.000   21.5    50   10.6   20.7   9.25  .0746    116    1    100.0    5 
15/07/19  10:05   15.9   15.9   15.9    70   10.5   2.0    NE   0.17   8.0    NE   15.9   15.6   15.6  1022.4  0.00  0.00   0.008   0.000   21.6    50   10.7   20.7   9.25  .0745    116    1    100.0    5 
15/07/19  10:10   16.0   16.0   15.9    70   10.5   2.0   ENE   0.17   7.0     E   16.0   15.7   15.7  1022.3  0.00  0.00   0.008   0.000   21.6    50   10.7   20.7   9.25  .0745    117    1    100.0    5 
15/07/19  10:15   16.1   16.1   16.0    70   10.6   1.0    NE   0.08   8.0    NE   16.1   15.7   15.7  1022.4  0.00  0.00   0.008   0.000   21.6    50   10.7   20.8   9.25  .0745    117    1    100.0    5 
15/07/19  10:20   16.1   16.1   16.1    70   10.6   3.0   NNE   0.25   8.0   NNE   16.1   15.7   15.7  1022.3  0.00  0.00   0.008   0.000   21.7    50   10.8   20.9   9.25  .0745    117    1    100.0    5 
15/07/19  10:25   16.1   16.1   16.1    70   10.6   1.0    NE   0.08   5.0   NNE   16.1   15.8   15.8  1022.3  0.00  0.00   0.008   0.000   21.6    50   10.7   20.8   9.25  .0745    116    1    100.0    5 
15/07/19  10:30   16.2   16.2   16.1    70   10.7   2.0    NE   0.17   9.0   ENE   16.2   15.9   15.9  1022.2  0.00  0.00   0.007   0.000   21.6    50   10.7   20.8   9.25  .0745    117    1    100.0    5 
15/07/19  10:35   16.4   16.4   16.2    70   10.9   2.0    NE   0.17  10.0    NE   16.4   16.1   16.1  1022.2  0.00  0.00   0.007   0.000   21.7    50   10.8   20.9   9.25  .0745    116    1    100.0    5 
15/07/19  10:40   16.5   16.5   16.4    70   11.0   2.0    NE   0.17   9.0    NE   16.5   16.2   16.2  1022.2  0.00  0.00   0.006   0.000   21.7    50   10.8   21.0   9.25  .0745    117    1    100.0    5 
15/07/19  10:45   16.7   16.7   16.5    70   11.2   1.0    NE   0.08   7.0   NNE   16.7   16.4   16.4  1022.3  0.00  0.00   0.006   0.000   21.7    50   10.8   21.0   9.25  .0745    117    1    100.0    5 
15/07/19  10:50   16.8   16.8   16.7    69   11.1   2.0   ENE   0.17   7.0   ENE   16.8   16.6   16.6  1022.2  0.00  0.00   0.005   0.000   21.8    50   10.9   21.1   9.25  .0745    117    1    100.0    5 
15/07/19  10:55   17.0   17.0   16.8    69   11.3   1.0   ENE   0.08   4.0   ENE   17.0   16.8   16.8  1022.2  0.00  0.00   0.005   0.000   21.8    50   10.9   21.2   9.25  .0744    118    1    100.0    5 
15/07/19  11:00   17.2   17.2   17.0    68   11.2   1.0    NE   0.08   4.0    NE   17.2   16.9   16.9  1022.2  0.00  0.00   0.004   0.000   21.8    50   10.9   21.2   9.25  .0744    117    1    100.0    5 
15/07/19  11:05   17.3   17.3   17.2    68   11.3   1.0   ENE   0.08   5.0    NE   17.3   17.1   17.1  1022.2  0.00  0.00   0.004   0.000   21.9    49   10.7   21.2   9.05  .0744    115    1    100.0    5 
15/07/19  11:10   17.3   17.3   17.3    67   11.1   2.0    NE   0.17   7.0    NE   17.3   17.1   17.1  1022.1  0.00  0.00   0.003   0.000   21.9    49   10.7   21.3   9.05  .0744    116    1    100.0    5 
15/07/19  11:15   17.4   17.4   17.3    68   11.4   1.0   ENE   0.08   6.0   ENE   17.4   17.2   17.2  1022.1  0.00  0.00   0.003   0.000   21.9    49   10.7   21.2   9.05  .0744    117    1    100.0    5 
15/07/19  11:20   17.6   17.6   17.4    67   11.4   1.0    NE   0.08   7.0    NE   17.6   17.3   17.3  1022.0  0.00  0.00   0.003   0.000   21.9    49   10.7   21.3   9.05  .0744    117    1    100.0    5 
15/07/19  11:25   17.7   17.7   17.6    67   11.5   1.0    NE   0.08   7.0    NE   17.7   17.4   17.4  1022.0  0.00  0.00   0.002   0.000   22.0    49   10.8   21.3   9.05  .0744    116    1    100.0    5 
15/07/19  11:30   17.8   17.8   17.7    67   11.6   4.0   ENE   0.33   9.0   ENE   17.8   17.6   17.6  1022.0  0.00  0.00   0.002   0.000   22.1    49   10.8   21.4   9.05  .0744    117    1    100.0    5 
15/07/19  11:35   17.9   17.9   17.8    66   11.5   1.0    NE   0.08   7.0   ENE   17.9   17.7   17.7  1022.0  0.00  0.00   0.001   0.000   22.1    49   10.9   21.5   9.05  .0744    117    1    100.0    5 
15/07/19  11:40   18.1   18.1   17.9    65   11.4   1.0    NE   0.08   8.0    NE   18.1   17.8   17.8  1021.9  0.00  0.00   0.001   0.000   22.2    49   10.9   21.6   9.05  .0743    117    1    100.0    5 
15/07/19  11:45   18.1   18.1   18.0    66   11.7   2.0   ENE   0.17   8.0   ENE   18.1   17.9   17.9  1022.0  0.00  0.00   0.001   0.000   22.2    49   11.0   21.7   9.05  .0743    117    1    100.0    5 
15/07/19  11:50   18.2   18.3   18.1    65   11.5   0.0    NE   0.00   5.0    NE   18.2   18.1   18.1  1022.0  0.00  0.00   0.000   0.000   22.2    49   11.0   21.7   9.05  .0743    117    1    100.0    5 
15/07/19  11:55   18.3   18.3   18.2    64   11.3   2.0    NE   0.17   7.0    NE   18.3   18.1   18.1  1022.0  0.00  0.00   0.000   0.000   22.3    48   10.7   21.7   8.89  .0743    117    1    100.0    5 
15/07/19  12:00   18.6   18.6   18.3    66   12.1   2.0    NE   0.17   8.0    NE   18.6   18.5   18.5  1021.9  0.00  0.00   0.000   0.001   22.3    48   10.7   21.7   8.89  .0743    118    1    100.0    5 
15/07/19  12:05   19.2   19.2   18.6    64   12.2   3.0   ENE   0.25   9.0    NE   19.2   19.1   19.1  1021.9  0.00  0.00   0.000   0.003   22.3    48   10.7   21.7   8.89  .0743    116    1    100.0    5 
15/07/19  12:10   19.7   19.7   19.2    62   12.2   3.0    NE   0.25   9.0   ENE   19.7   19.6   19.6  1021.9  0.00  0.00   0.000   0.005   22.4    48   10.8   21.8   8.90  .0743    117    1    100.0    5 
15/07/19  12:15   20.2   20.2   19.7    61   12.5   3.0    NE   0.25  11.0   ENE   20.2   20.1   20.1  1021.9  0.00  0.00   0.000   0.007   22.4    49   11.1   21.9   9.05  .0743    117    1    100.0    5 
15/07/19  12:20   20.8   20.8   20.2    59   12.5   3.0    NE   0.25  11.0    NE   20.8   20.3   20.3  1021.8  0.00  0.00   0.000   0.008   22.5    48   10.9   22.0   8.90  .0742    117    1    100.0    5 
15/07/19  12:25   21.3   21.3   20.8    59   12.9   4.0    NE   0.33  11.0   ENE   21.3   20.8   20.8  1021.9  0.00  0.00   0.000   0.010   22.6    48   11.0   22.1   8.90  .0742    116    1    100.0    5 
15/07/19  12:30   21.9   21.9   21.3    58   13.3   5.0   ESE   0.42  10.0   ESE   21.9   21.6   21.6  1021.7  0.00  0.00   0.000   0.012   22.6    48   11.0   22.2   8.90  .0742    117    1    100.0    5 
15/07/19  12:35   22.3   22.3   21.9    53   12.3   4.0   NNE   0.33  12.0    NE   22.3   22.0   22.0  1021.8  0.00  0.00   0.000   0.014   22.7    48   11.1   22.3   8.91  .0742    116    1    100.0    5 
15/07/19  12:40   22.2   22.3   22.2    53   12.2   2.0   NNE   0.17   8.0    NE   22.2   21.8   21.8  1021.8  0.00  0.00   0.000   0.014   22.8    47   10.9   22.4   8.75  .0742    117    1    100.0    5 
15/07/19  12:45   22.6   22.6   22.2    54   12.8   1.0   NNE   0.08   8.0   NNE   22.6   22.4   22.4  1021.7  0.00  0.00   0.000   0.015   22.9    48   11.3   22.6   8.91  .0741    117    1    100.0    5 
15/07/19  12:50   22.9   22.9   22.6    55   13.4   3.0     E   0.25  11.0    NE   22.9   23.0   23.0  1021.7  0.00  0.00   0.000   0.016   22.9    48   11.3   22.6   8.92  .0741    117    1    100.0    5 
15/07/19  12:55   23.1   23.1   23.0    54   13.2   1.0    NE   0.08   8.0    NE   23.1   23.1   23.1  1021.7  0.00  0.00   0.000   0.016   23.1    47   11.1   22.7   8.75  .0741    117    1    100.0    5 
15/07/19  13:00   23.1   23.1   23.0    53   13.0   4.0    NE   0.33  12.0    NE   23.1   23.0   23.0  1021.6  0.00  0.00   0.000   0.016   23.2    47   11.2   22.8   8.75  .0740    118    1    100.0    5 
15/07/19  13:05   22.6   23.1   22.6    52   12.2   4.0     N   0.33   9.0   NNE   22.6   22.3   22.3  1021.6  0.00  0.00   0.000   0.015   23.2    46   11.0   22.9   8.57  .0740    117    1    100.0    5 
15/07/19  13:10   22.3   22.6   22.3    54   12.5   1.0    NE   0.08   7.0   NNE   22.3   22.0   22.0  1021.6  0.00  0.00   0.000   0.014   23.3    46   11.0   22.9   8.57  .0740    117    1    100.0    5 
15/07/19  13:15   22.4   22.4   22.3    52   12.0   1.0    NE   0.08   7.0    NE   22.4   22.1   22.1  1021.5  0.00  0.00   0.000   0.014   23.3    46   11.0   22.9   8.57  .0740    117    1    100.0    5 
15/07/19  13:20   22.7   22.7   22.4    54   12.9   2.0    NE   0.17   8.0   ENE   22.7   22.6   22.6  1021.5  0.00  0.00   0.000   0.015   23.3    46   11.1   23.1   8.57  .0740    115    1    100.0    5 
15/07/19  13:25   22.9   22.9   22.7    50   11.9   2.0     N   0.17   7.0     N   22.9   22.6   22.6  1021.6  0.00  0.00   0.000   0.016   23.4    46   11.1   23.1   8.57  .0740    116    1    100.0    5 
15/07/19  13:30   23.1   23.1   22.9    52   12.7   2.0    NE   0.17   7.0    NE   23.1   22.9   22.9  1021.5  0.00  0.00   0.000   0.016   23.4    46   11.2   23.2   8.57  .0740    117    1    100.0    5 
15/07/19  13:35   23.3   23.3   23.1    53   13.2   0.0    NE   0.00   2.0    NE   23.3   23.3   23.3  1021.6  0.00  0.00   0.000   0.017   23.5    47   11.5   23.3   8.75  .0739    117    1    100.0    5 
15/07/19  13:40   23.5   23.5   23.3    53   13.4   3.0   ENE   0.25   8.0   ENE   23.5   23.6   23.6  1021.5  0.00  0.00   0.000   0.018   23.6    47   11.6   23.4   8.75  .0739    117    1    100.0    5 
15/07/19  13:45   23.7   23.7   23.5    51   12.9   1.0   ENE   0.08   6.0   ENE   23.7   23.7   23.7  1021.5  0.00  0.00   0.000   0.019   23.6    47   11.6   23.4   8.75  .0739    117    1    100.0    5 
15/07/19  13:50   23.8   23.8   23.6    53   13.6   3.0   ENE   0.25   7.0   ENE   23.8   23.9   23.9  1021.5  0.00  0.00   0.000   0.019   23.7    47   11.7   23.5   8.75  .0739    117    1    100.0    5 
15/07/19  13:55   23.8   23.9   23.8    52   13.4   2.0     E   0.17   5.0     E   23.8   23.9   23.9  1021.4  0.00  0.00   0.000   0.019   23.8    47   11.8   23.7   8.75  .0738    117    1    100.0    5 
15/07/19  14:00   22.9   23.8   22.9    51   12.3   0.0     E   0.00   2.0     E   22.9   22.8   22.8  1021.5  0.00  0.00   0.000   0.016   23.8    48   12.2   23.8   8.95  .0738    117    1    100.0    5 
15/07/19  14:05   21.5   22.9   21.5    55   12.1   1.0     E   0.08   4.0   ESE   21.5   20.9   20.9  1021.3  0.00  0.00   0.000   0.011   23.9    47   11.9   23.8   8.75  .0738    118    1    100.0    5 
15/07/19  14:10   21.2   21.4   21.1    60   13.1   0.0    SE   0.00   3.0    SE   21.2   20.7   20.7  1021.3  0.00  0.00   0.000   0.010   24.0    47   12.0   23.9   8.75  .0738    116    1    100.0    5 
15/07/19  14:15   21.8   21.8   21.2    59   13.4   0.0    SE   0.00   3.0    SE   21.8   21.5   21.5  1021.4  0.00  0.00   0.000   0.012   24.1    47   12.0   23.9   8.74  .0738    117    1    100.0    5 
15/07/19  14:20   21.8   21.9   21.8    55   12.4   1.0    SE   0.08   5.0    SE   21.8   21.4   21.4  1021.3  0.00  0.00   0.000   0.012   24.1    47   12.0   23.9   8.74  .0737    116    1    100.0    5 
15/07/19  14:25   21.6   21.8   21.6    55   12.2   1.0    SE   0.08   3.0    SE   21.6   21.1   21.1  1021.3  0.00  0.00   0.000   0.011   24.1    47   12.1   24.0   8.74  .0737    117    1    100.0    5 
15/07/19  14:30   21.1   21.6   21.1    57   12.3   3.0    SE   0.25   6.0    SE   21.1   20.5   20.5  1021.2  0.00  0.00   0.000   0.010   24.2    47   12.1   24.1   8.74  .0737    117    1    100.0    5 
15/07/19  14:35   21.2   21.2   21.1    60   13.1   1.0    SE   0.08   6.0    SE   21.2   20.7   20.7  1021.2  0.00  0.00   0.000   0.010   24.2    48   12.5   24.1   8.94  .0737    117    1    100.0    5 
15/07/19  14:40   21.1   21.2   21.1    60   13.0   2.0    SE   0.17   6.0    SE   21.1   20.7   20.7  1021.2  0.00  0.00   0.000   0.010   24.3    48   12.6   24.2   8.94  .0736    116    1    100.0    5 
15/07/19  14:45   21.3   21.3   21.2    59   12.9   4.0    SE   0.33   6.0    SE   21.3   20.8   20.8  1021.1  0.00  0.00   0.000   0.010   24.3    48   12.6   24.3   8.93  .0736    116    1    100.0    5 
15/07/19  14:50   21.2   21.3   21.2    60   13.1   4.0   SSE   0.33   6.0   SSE   21.2   20.8   20.8  1021.2  0.00  0.00   0.000   0.010   24.4    49   13.0   24.3   9.03  .0736    115    1    100.0    5 
15/07/19  14:55   21.1   21.3   21.1    59   12.8   5.0   SSE   0.42   9.0   SSE   21.1   20.6   20.6  1021.1  0.00  0.00   0.000   0.010   24.5    49   13.1   24.4   9.03  .0735    116    1    100.0    5 
15/07/19  15:00   20.7   21.1   20.7    60   12.6   7.0     S   0.58  10.0   SSE   20.7   20.3   20.3  1021.1  0.00  0.00   0.000   0.008   24.5    49   13.1   24.4   9.03  .0735    117    1    100.0    5 
15/07/19  15:05   19.9   20.6   19.9    61   12.1   5.0   SSW   0.42   7.0     S   19.9   19.8   19.8  1021.0  0.00  0.00   0.000   0.005   24.6    49   13.1   24.5   9.03  .0735    118    1    100.0    5 
15/07/19  15:10   19.7   19.9   19.7    62   12.2   5.0   SSW   0.42   7.0   SSW   19.7   19.6   19.6  1021.0  0.00  0.00   0.000   0.005   24.6    48   12.9   24.5   8.92  .0735    117    1    100.0    5 
15/07/19  15:15   19.6   19.7   19.6    63   12.3   5.0     S   0.42   7.0     S   19.6   19.4   19.4  1020.9  0.00  0.00   0.000   0.004   24.7    48   12.9   24.6   8.92  .0735    116    1    100.0    5 
15/07/19  15:20   19.7   19.7   19.6    65   13.0   6.0     S   0.50   7.0     S   19.7   19.8   19.8  1020.9  0.00  0.00   0.000   0.005   24.7    49   13.3   24.6   9.02  .0735    117    1    100.0    5 
15/07/19  15:25   19.6   19.7   19.6    63   12.4   5.0     S   0.42   7.0     S   19.6   19.6   19.6  1020.9  0.00  0.00   0.000   0.004   24.8    49   13.3   24.7   9.02  .0734    117    1    100.0    5 
15/07/19  15:30   19.4   19.6   19.4    63   12.2   5.0     S   0.42   7.0     S   19.4   19.3   19.3  1020.9  0.00  0.00   0.000   0.004   24.8    48   13.1   24.7   8.92  .0735    117    1    100.0    5 
15/07/19  15:35   19.4   19.5   19.4    63   12.2   5.0   SSW   0.42   7.0   SSW   19.4   19.3   19.3  1020.9  0.00  0.00   0.000   0.004   24.9    48   13.1   24.7   8.91  .0734    117    1    100.0    5 
15/07/19  15:40   19.3   19.4   19.3    63   12.1   5.0   SSW   0.42   7.0   SSW   19.3   19.2   19.2  1020.9  0.00  0.00   0.000   0.003   25.0    48   13.2   24.8   8.91  .0734    117    1    100.0    5 
15/07/19  15:45   19.3   19.3   19.3    65   12.6   5.0   SSW   0.42   7.0   SSW   19.3   19.3   19.3  1020.9  0.00  0.00   0.000   0.003   25.0    48   13.2   24.8   8.91  .0734    117    1    100.0    5 
15/07/19  15:50   19.5   19.5   19.3    64   12.5   6.0     S   0.50   8.0     S   19.5   19.4   19.4  1020.9  0.00  0.00   0.000   0.004   25.1    48   13.3   24.9   8.91  .0734    117    1    100.0    5 
15/07/19  15:55   19.4   19.5   19.4    64   12.5   6.0     S   0.50   8.0     S   19.4   19.4   19.4  1020.8  0.00  0.00   0.000   0.004   25.1    49   13.6   24.9   9.01  .0734    117    1    100.0    5 
15/07/19  16:00   19.3   19.4   19.3    64   12.3   6.0     S   0.50   7.0     S   19.3   19.3   19.3  1020.8  0.00  0.00   0.000   0.003   25.1    48   13.3   24.9   8.91  .0734    116    1    100.0    5 
15/07/19  16:05   19.2   19.3   19.2    64   12.2   6.0     S   0.50   9.0     S   19.2   19.1   19.1  1020.8  0.00  0.00   0.000   0.003   25.2    48   13.4   25.0   8.90  .0733    115    1    100.0    5 
15/07/19  16:10   19.2   19.2   19.2    65   12.4   6.0     S   0.50   9.0     S   19.2   19.1   19.1  1020.8  0.00  0.00   0.000   0.003   25.2    48   13.4   25.1   8.90  .0733    116    1    100.0    5 
15/07/19  16:15   19.1   19.1   19.1    64   12.1   6.0     S   0.50   8.0     S   19.1   18.9   18.9  1020.7  0.00  0.00   0.000   0.003   25.3    48   13.5   25.2   8.90  .0733    117    1    100.0    5 
15/07/19  16:20   19.1   19.1   19.0    64   12.1   5.0     S   0.42   7.0     S   19.1   18.9   18.9  1020.7  0.00  0.00   0.000   0.003   25.3    48   13.5   25.2   8.90  .0733    117    1    100.0    5 
15/07/19  16:25   19.3   19.3   19.1    66   12.8   6.0     S   0.50   7.0     S   19.3   19.3   19.3  1020.6  0.00  0.00   0.000   0.003   25.3    48   13.5   25.2   8.90  .0733    117    1    100.0    5 
15/07/19  16:30   19.6   19.6   19.3    64   12.6   6.0     S   0.50   8.0     S   19.6   19.5   19.5  1020.6  0.00  0.00   0.000   0.004   25.4    48   13.6   25.3   8.90  .0733    117    1    100.0    5 
15/07/19  16:35   19.9   19.9   19.6    64   12.9   5.0   SSE   0.42   9.0   SSE   19.9   19.9   19.9  1020.6  0.00  0.00   0.000   0.005   25.4    48   13.6   25.3   8.89  .0732    117    1    100.0    5 
15/07/19  16:40   20.1   20.1   19.9    63   12.8   5.0     S   0.42   7.0   SSE   20.1   20.1   20.1  1020.5  0.00  0.00   0.000   0.006   25.5    48   13.7   25.4   8.89  .0732    117    1    100.0    5 
15/07/19  16:45   19.9   20.1   19.9    63   12.7   6.0     S   0.50   8.0     S   19.9   19.9   19.9  1020.6  0.00  0.00   0.000   0.006   25.6    48   13.7   25.4   8.89  .0732    117    1    100.0    5 
15/07/19  16:50   19.7   19.9   19.7    63   12.4   6.0     S   0.50   8.0     S   19.7   19.6   19.6  1020.5  0.00  0.00   0.000   0.005   25.7    47   13.5   25.6   8.69  .0732    117    1    100.0    5 
15/07/19  16:55   19.8   19.8   19.7    63   12.6   5.0   SSE   0.42   8.0   SSE   19.8   19.8   19.8  1020.6  0.00  0.00   0.000   0.005   25.7    47   13.6   25.6   8.68  .0732    116    1    100.0    5 
15/07/19  17:00   20.1   20.1   19.8    63   12.8   4.0     S   0.33   7.0   SSE   20.1   20.1   20.1  1020.5  0.00  0.00   0.000   0.006   25.8    47   13.6   25.7   8.68  .0731    117    1    100.0    5 
15/07/19  17:05   20.3   20.3   20.1    62   12.8   4.0   SSE   0.33   7.0   SSE   20.3   20.2   20.2  1020.5  0.00  0.00   0.000   0.007   25.8    47   13.7   25.7   8.68  .0731    117    1    100.0    5 
15/07/19  17:10   20.4   20.4   20.3    61   12.7   4.0   SSE   0.33   6.0   SSE   20.4   20.2   20.2  1020.4  0.00  0.00   0.000   0.007   25.9    47   13.7   25.8   8.68  .0731    117    1    100.0    5 
15/07/19  17:15   20.4   20.5   20.4    62   12.9   5.0     S   0.42   7.0     S   20.4   20.3   20.3  1020.5  0.00  0.00   0.000   0.007   25.9    47   13.8   25.9   8.68  .0731    118    1    100.0    5 
15/07/19  17:20   20.2   20.4   20.2    61   12.5   5.0     S   0.42   7.0     S   20.2   20.1   20.1  1020.5  0.00  0.00   0.000   0.007   25.9    47   13.8   25.9   8.68  .0731    117    1    100.0    5 
15/07/19  17:25   20.1   20.2   20.1    61   12.3   4.0     S   0.33   7.0     S   20.1   19.9   19.9  1020.5  0.00  0.00   0.000   0.006   26.0    46   13.5   25.9   8.47  .0731    116    1    100.0    5 
15/07/19  17:30   19.9   20.1   19.9    62   12.4   5.0     S   0.42   7.0     S   19.9   19.9   19.9  1020.4  0.00  0.00   0.000   0.006   26.1    46   13.5   25.9   8.47  .0731    117    1    100.0    5 
15/07/19  17:35   20.1   20.1   19.9    63   12.8   4.0   SSE   0.33   6.0   SSE   20.1   20.1   20.1  1020.3  0.00  0.00   0.000   0.006   26.1    46   13.6   26.0   8.47  .0731    117    1    100.0    5 
15/07/19  17:40   20.2   20.2   20.1    62   12.7   4.0   SSE   0.33   6.0   SSE   20.2   20.1   20.1  1020.3  0.00  0.00   0.000   0.007   26.2    46   13.6   26.1   8.47  .0730    117    1    100.0    5 
15/07/19  17:45   20.4   20.4   20.2    62   12.9   3.0   SSE   0.25   6.0   SSE   20.4   20.3   20.3  1020.3  0.00  0.00   0.000   0.007   26.2    46   13.7   26.1   8.47  .0730    117    1    100.0    5 
15/07/19  17:50   20.4   20.5   20.4    61   12.7   5.0   SSE   0.42   6.0   SSE   20.4   20.2   20.2  1020.3  0.00  0.00   0.000   0.007   26.2    46   13.7   26.1   8.47  .0730    117    1    100.0    5 
15/07/19  17:55   20.3   20.4   20.3    61   12.6   4.0   SSE   0.33   7.0   SSE   20.3   20.1   20.1  1020.3  0.00  0.00   0.000   0.007   26.3    45   13.4   26.1   8.36  .0730    117    1    100.0    5 
15/07/19  18:00   20.2   20.3   20.2    62   12.7   4.0     S   0.33   7.0     S   20.2   20.1   20.1  1020.3  0.00  0.00   0.000   0.006   26.3    45   13.4   26.1   8.36  .0730    116    1    100.0    5 
15/07/19  18:05   20.1   20.2   20.1    62   12.5   4.0   SSE   0.33   7.0     S   20.1   20.0   20.0  1020.3  0.00  0.00   0.000   0.006   26.3    45   13.4   26.2   8.36  .0730    117    1    100.0    5 
15/07/19  18:10   20.0   20.1   20.0    62   12.5   4.0   SSE   0.33   7.0   SSE   20.0   19.9   19.9  1020.3  0.00  0.00   0.000   0.006   26.3    45   13.4   26.2   8.36  .0730    116    1    100.0    5 
15/07/19  18:15   20.1   20.1   20.0    62   12.5   3.0   SSE   0.25   6.0   SSE   20.1   20.0   20.0  1020.3  0.00  0.00   0.000   0.006   26.4    45   13.5   26.2   8.36  .0730    118    1    100.0    5 
15/07/19  18:20   20.0   20.1   19.9    61   12.2   4.0   SSE   0.33   6.0   SSE   20.0   19.9   19.9  1020.3  0.00  0.00   0.000   0.006   26.4    45   13.5   26.2   8.36  .0730    117    1    100.0    5 
15/07/19  18:25   19.8   19.9   19.8    62   12.3   3.0     S   0.25   6.0     S   19.8   19.7   19.7  1020.3  0.00  0.00   0.000   0.005   26.4    45   13.5   26.2   8.36  .0730    115    1    100.0    5 
15/07/19  18:30   19.8   19.8   19.7    62   12.3   3.0   SSE   0.25   7.0   SSE   19.8   19.7   19.7  1020.2  0.00  0.00   0.000   0.005   26.4    45   13.5   26.2   8.36  .0730    117    1    100.0    5 
15/07/19  18:35   19.9   19.9   19.8    61   12.2   3.0   SSE   0.25   6.0   SSE   19.9   19.8   19.8  1020.2  0.00  0.00   0.000   0.006   26.5    44   13.3   26.2   8.16  .0730    117    1    100.0    5 
15/07/19  18:40   19.8   19.9   19.8    62   12.3   3.0   SSE   0.25   6.0   SSE   19.8   19.7   19.7  1020.2  0.00  0.00   0.000   0.005   26.6    44   13.3   26.3   8.15  .0730    117    1    100.0    5 
15/07/19  18:45   19.8   19.8   19.8    62   12.3   3.0   SSE   0.25   5.0   SSE   19.8   19.7   19.7  1020.2  0.00  0.00   0.000   0.005   26.6    44   13.3   26.3   8.15  .0730    116    1    100.0    5 
15/07/19  18:50   19.8   19.8   19.8    61   12.1   4.0   SSE   0.33   6.0   SSE   19.8   19.7   19.7  1020.3  0.00  0.00   0.000   0.005   26.6    44   13.4   26.3   8.15  .0729    117    1    100.0    5 
15/07/19  18:55   19.8   19.8   19.8    62   12.3   3.0   SSE   0.25   6.0   SSE   19.8   19.7   19.7  1020.2  0.00  0.00   0.000   0.005   26.6    44   13.4   26.3   8.15  .0729    117    1    100.0    5 
15/07/19  19:00   19.8   19.8   19.7    62   12.3   2.0   SSE   0.17   6.0   SSE   19.8   19.7   19.7  1020.3  0.00  0.00   0.000   0.005   26.6    44   13.4   26.3   8.15  .0730    117    1    100.0    5 
15/07/19  19:05   19.8   19.8   19.8    62   12.3   2.0   SSE   0.17   5.0   SSE   19.8   19.7   19.7  1020.3  0.00  0.00   0.000   0.005   26.6    44   13.4   26.3   8.15  .0730    117    1    100.0    5 
15/07/19  19:10   19.7   19.8   19.7    63   12.5   3.0   SSE   0.25   5.0   SSE   19.7   19.7   19.7  1020.3  0.00  0.00   0.000   0.005   26.7    44   13.4   26.4   8.15  .0729    117    1    100.0    5 
15/07/19  19:15   19.4   19.7   19.4    62   12.0   3.0   SSE   0.25   6.0   SSE   19.4   19.3   19.3  1020.3  0.00  0.00   0.000   0.004   26.7    44   13.4   26.4   8.15  .0729    115    1    100.0    5 
15/07/19  19:20   19.2   19.4   19.2    64   12.2   2.0     S   0.17   5.0     S   19.2   19.1   19.1  1020.4  0.00  0.00   0.000   0.003   26.7    43   13.1   26.3   8.05  .0730    117    1    100.0    5 
15/07/19  19:25   19.1   19.2   19.1    64   12.1   2.0     S   0.17   5.0     S   19.1   18.9   18.9  1020.3  0.00  0.00   0.000   0.003   26.7    43   13.1   26.3   8.05  .0730    117    1    100.0    5 
15/07/19  19:30   18.8   19.1   18.8    65   12.1   4.0   SSE   0.33   7.0   SSE   18.8   18.7   18.7  1020.4  0.00  0.00   0.000   0.002   26.7    43   13.1   26.3   8.05  .0730    117    1    100.0    5 
15/07/19  19:35   18.8   18.8   18.8    65   12.1   3.0   SSE   0.25   6.0   SSE   18.8   18.7   18.7  1020.4  0.00  0.00   0.000   0.002   26.7    43   13.1   26.3   8.05  .0730    116    1    100.0    5 
15/07/19  19:40   18.6   18.7   18.6    65   11.8   1.0   SSE   0.08   4.0   SSE   18.6   18.4   18.4  1020.3  0.00  0.00   0.000   0.001   26.6    43   13.0   26.3   8.05  .0730    116    1    100.0    5 
15/07/19  19:45   18.3   18.6   18.3    66   11.9   2.0   SSE   0.17   5.0   SSE   18.3   18.2   18.2  1020.3  0.00  0.00   0.000   0.000   26.6    43   13.0   26.3   8.05  .0730    117    1    100.0    5 
15/07/19  19:50   18.2   18.3   18.2    66   11.7   2.0   SSE   0.17   6.0   SSE   18.2   18.0   18.0  1020.3  0.00  0.00   0.001   0.000   26.6    43   13.0   26.2   8.05  .0730    116    1    100.0    5 
15/07/19  19:55   18.1   18.2   18.1    67   11.9   1.0   SSE   0.08   4.0   SSE   18.1   17.9   17.9  1020.4  0.00  0.00   0.001   0.000   26.6    43   13.0   26.2   8.05  .0730    117    1    100.0    5 
15/07/19  20:00   18.1   18.1   18.1    67   11.8   2.0   SSE   0.17   5.0   SSE   18.1   17.9   17.9  1020.4  0.00  0.00   0.001   0.000   26.5    43   12.9   26.2   8.05  .0730    116    1    100.0    5 
15/07/19  20:05   17.9   18.1   17.9    67   11.7   1.0   SSE   0.08   5.0   SSE   17.9   17.7   17.7  1020.5  0.00  0.00   0.002   0.000   26.4    43   12.9   26.1   8.05  .0730    116    1    100.0    5 
15/07/19  20:10   17.8   17.9   17.8    68   11.8   1.0   SSE   0.08   3.0   SSE   17.8   17.6   17.6  1020.5  0.00  0.00   0.002   0.000   26.4    44   13.2   26.1   8.16  .0730    116    1    100.0    5 
15/07/19  20:15   17.6   17.8   17.6    68   11.6   1.0   SSE   0.08   5.0   SSE   17.6   17.4   17.4  1020.5  0.00  0.00   0.003   0.000   26.4    44   13.2   26.1   8.16  .0730    117    1    100.0    5 
15/07/19  20:20   17.5   17.6   17.5    69   11.7   2.0   SSE   0.17   6.0   SSE   17.5   17.3   17.3  1020.5  0.00  0.00   0.003   0.000   26.3    44   13.1   26.1   8.16  .0731    117    1    100.0    5 
15/07/19  20:25   17.3   17.5   17.3    69   11.6   2.0    SE   0.17   5.0    SE   17.3   17.2   17.2  1020.5  0.00  0.00   0.003   0.000   26.3    44   13.1   26.1   8.16  .0730    118    1    100.0    5 
15/07/19  20:30   17.2   17.3   17.2    69   11.4   2.0    SE   0.17   5.0    SE   17.2   16.9   16.9  1020.5  0.00  0.00   0.004   0.000   26.2    44   13.0   26.0   8.17  .0731    117    1    100.0    5 
15/07/19  20:35   17.0   17.2   17.0    70   11.5   2.0   SSE   0.17   6.0   SSE   17.0   16.8   16.8  1020.5  0.00  0.00   0.005   0.000   26.2    44   13.0   26.0   8.17  .0731    117    1    100.0    5 
15/07/19  20:40   16.9   17.0   16.9    70   11.4   2.0   SSE   0.17   5.0   SSE   16.9   16.7   16.7  1020.5  0.00  0.00   0.005   0.000   26.2    44   13.0   25.9   8.17  .0731    117    1    100.0    5 
15/07/19  20:45   16.8   16.9   16.8    71   11.5   1.0   SSE   0.08   5.0   SSE   16.8   16.6   16.6  1020.5  0.00  0.00   0.005   0.000   26.1    44   12.9   25.9   8.17  .0731    117    1    100.0    5 
15/07/19  20:50   16.7   16.8   16.7    71   11.4   1.0   SSE   0.08   5.0   SSE   16.7   16.5   16.5  1020.5  0.00  0.00   0.006   0.000   26.1    44   12.9   25.8   8.17  .0731    115    1    100.0    5 
15/07/19  20:55   16.7   16.7   16.7    72   11.6   3.0   SSE   0.25   5.0   SSE   16.7   16.4   16.4  1020.5  0.00  0.00   0.006   0.000   26.0    44   12.8   25.8   8.17  .0732    116    1    100.0    5 
15/07/19  21:00   16.6   16.7   16.6    72   11.5   0.0   SSE   0.00   4.0   SSE   16.6   16.3   16.3  1020.5  0.00  0.00   0.006   0.000   25.9    44   12.8   25.7   8.18  .0732    116    1    100.0    5 
15/07/19  21:05   16.6   16.6   16.6    72   11.5   2.0   SSE   0.17   5.0   SSE   16.6   16.3   16.3  1020.6  0.00  0.00   0.006   0.000   25.9    45   13.0   25.7   8.38  .0732    114    1    100.0    5 
15/07/19  21:10   16.5   16.6   16.5    72   11.4   2.0   SSE   0.17   5.0   SSE   16.5   16.3   16.3  1020.6  0.00  0.00   0.006   0.000   25.8    45   13.0   25.6   8.38  .0732    117    1    100.0    5 
15/07/19  21:15   16.5   16.5   16.5    73   11.6   3.0    SE   0.25   6.0    SE   16.5   16.3   16.3  1020.6  0.00  0.00   0.006   0.000   25.8    45   12.9   25.6   8.38  .0732    117    1    100.0    5 
15/07/19  21:20   16.5   16.5   16.4    73   11.6   2.0    SE   0.17   5.0    SE   16.5   16.3   16.3  1020.6  0.00  0.00   0.006   0.000   25.7    45   12.9   25.5   8.38  .0732    116    1    100.0    5 
15/07/19  21:25   16.4   16.4   16.4    73   11.6   2.0    SE   0.17   6.0    SE   16.4   16.2   16.2  1020.7  0.00  0.00   0.007   0.000   25.7    45   12.8   25.4   8.39  .0732    118    1    100.0    5 
15/07/19  21:30   16.4   16.4   16.4    73   11.5   0.0    SE   0.00   4.0    SE   16.4   16.2   16.2  1020.8  0.00  0.00   0.007   0.000   25.6    45   12.8   25.4   8.39  .0733    115    1    100.0    5 
15/07/19  21:35   16.4   16.4   16.4    74   11.7   1.0    SE   0.08   5.0    SE   16.4   16.2   16.2  1020.8  0.00  0.00   0.007   0.000   25.6    46   13.1   25.4   8.49  .0732    116    1    100.0    5 
15/07/19  21:40   16.3   16.4   16.3    74   11.7   0.0    SE   0.00   6.0    SE   16.3   16.2   16.2  1020.8  0.00  0.00   0.007   0.000   25.6    46   13.1   25.4   8.49  .0733    115    1    100.0    5 
15/07/19  21:45   16.3   16.3   16.3    74   11.6   1.0    SE   0.08   4.0    SE   16.3   16.1   16.1  1020.9  0.00  0.00   0.007   0.000   25.6    46   13.1   25.4   8.49  .0733    117    1    100.0    5 
15/07/19  21:50   16.3   16.3   16.3    74   11.7   1.0    SE   0.08   5.0    SE   16.3   16.2   16.2  1020.9  0.00  0.00   0.007   0.000   25.5    46   13.0   25.3   8.49  .0733    116    1    100.0    5 
15/07/19  21:55   16.3   16.3   16.3    74   11.6   1.0    SE   0.08   4.0    SE   16.3   16.1   16.1  1020.9  0.00  0.00   0.007   0.000   25.5    46   13.0   25.3   8.49  .0733    116    1    100.0    5 
15/07/19  22:00   16.3   16.3   16.3    74   11.7   1.0    SE   0.08   4.0    SE   16.3   16.2   16.2  1020.9  0.00  0.00   0.007   0.000   25.4    46   13.0   25.3   8.49  .0733    116    1    100.0    5 
15/07/19  22:05   16.3   16.3   16.3    75   11.9   1.0    SE   0.08   4.0    SE   16.3   16.2   16.2  1020.9  0.00  0.00   0.007   0.000   25.4    47   13.3   25.2   8.70  .0733    116    1    100.0    5 
15/07/19  22:10   16.3   16.3   16.3    75   11.9   1.0    SE   0.08   5.0    SE   16.3   16.2   16.2  1020.9  0.00  0.00   0.007   0.000   25.3    47   13.2   25.2   8.70  .0733    117    1    100.0    5 
15/07/19  22:15   16.3   16.3   16.3    75   11.9   1.0    SE   0.08   3.0    SE   16.3   16.2   16.2  1020.9  0.00  0.00   0.007   0.000   25.3    47   13.2   25.2   8.70  .0733    116    1    100.0    5 
15/07/19  22:20   16.4   16.4   16.3    75   11.9   2.0    SE   0.17   6.0    SE   16.4   16.3   16.3  1020.8  0.00  0.00   0.007   0.000   25.3    47   13.2   25.1   8.70  .0733    116    1    100.0    5 
15/07/19  22:25   16.4   16.4   16.4    76   12.2   1.0    SE   0.08   4.0    SE   16.4   16.3   16.3  1020.7  0.00  0.00   0.007   0.000   25.3    48   13.5   25.2   8.90  .0733    115    1    100.0    5 
15/07/19  22:30   16.4   16.4   16.4    76   12.2   0.0   ESE   0.00   4.0   ESE   16.4   16.3   16.3  1020.8  0.00  0.00   0.007   0.000   25.2    48   13.4   25.1   8.90  .0733    116    1    100.0    5 
15/07/19  22:35   16.5   16.5   16.4    76   12.3   0.0   ---   0.00   0.0   ---   16.5   16.4   16.4  1020.8  0.00  0.00   0.006   0.000   25.2    48   13.4   25.0   8.90  .0733    116    1    100.0    5 
15/07/19  22:40   16.6   16.6   16.5    76   12.3   1.0   ESE   0.08   3.0   ESE   16.6   16.5   16.5  1020.7  0.00  0.00   0.006   0.000   25.2    49   13.7   25.1   9.00  .0733    116    1    100.0    5 
15/07/19  22:45   16.6   16.6   16.6    76   12.3   0.0   ESE   0.00   3.0   ESE   16.6   16.5   16.5  1020.7  0.00  0.00   0.006   0.000   25.1    49   13.6   25.0   9.01  .0733    117    1    100.0    5 
15/07/19  22:50   16.6   16.6   16.5    76   12.3   1.0   ESE   0.08   5.0   ESE   16.6   16.5   16.5  1020.7  0.00  0.00   0.006   0.000   25.1    49   13.6   25.0   9.01  .0733    117    1    100.0    5 
15/07/19  22:55   16.6   16.6   16.6    76   12.4   0.0   ESE   0.00   1.0   ESE   16.6   16.6   16.6  1020.7  0.00  0.00   0.006   0.000   25.1    49   13.6   25.0   9.01  .0733    116    1    100.0    5 
15/07/19  23:00   16.7   16.7   16.6    77   12.6   0.0   ESE   0.00   1.0   ESE   16.7   16.7   16.7  1020.6  0.00  0.00   0.006   0.000   25.1    49   13.6   24.9   9.01  .0733    117    1    100.0    5 
15/07/19  23:05   16.7   16.7   16.6    77   12.6   1.0   ESE   0.08   5.0   ESE   16.7   16.7   16.7  1020.7  0.00  0.00   0.006   0.000   25.1    49   13.6   24.9   9.01  .0733    116    1    100.0    5 
15/07/19  23:10   16.7   16.7   16.7    77   12.7   1.0   ESE   0.08   5.0   ESE   16.7   16.7   16.7  1020.7  0.00  0.00   0.006   0.000   25.0    50   13.9   24.9   9.21  .0733    117    1    100.0    5 
15/07/19  23:15   16.7   16.7   16.7    77   12.6   1.0   ESE   0.08   4.0   ESE   16.7   16.7   16.7  1020.7  0.00  0.00   0.006   0.000   24.9    50   13.8   24.8   9.21  .0734    116    1    100.0    5 
15/07/19  23:20   16.7   16.7   16.7    77   12.7   1.0   ESE   0.08   4.0   ESE   16.7   16.7   16.7  1020.7  0.00  0.00   0.006   0.000   24.9    50   13.8   24.8   9.21  .0734    117    1    100.0    5 
15/07/19  23:25   16.7   16.7   16.7    77   12.6   0.0   ESE   0.00   3.0   ESE   16.7   16.7   16.7  1020.7  0.00  0.00   0.006   0.000   24.9    50   13.8   24.8   9.21  .0734    117    1    100.0    5 
15/07/19  23:30   16.7   16.7   16.7    77   12.6   1.0   ESE   0.08   4.0   ESE   16.7   16.7   16.7  1020.8  0.00  0.00   0.006   0.000   24.8    50   13.7   24.8   9.22  .0734    117    1    100.0    5 
15/07/19  23:35   16.7   16.7   16.7    77   12.6   1.0   ESE   0.08   7.0   ESE   16.7   16.7   16.7  1020.8  0.00  0.00   0.006   0.000   24.8    50   13.7   24.8   9.22  .0734    116    1    100.0    5 
15/07/19  23:40   16.7   16.7   16.6    77   12.6   2.0   ESE   0.17   6.0   ESE   16.7   16.7   16.7  1020.8  0.00  0.00   0.006   0.000   24.8    50   13.6   24.7   9.22  .0734    117    1    100.0    5 
15/07/19  23:45   16.7   16.7   16.7    78   12.8   1.0    SE   0.08   5.0    SE   16.7   16.7   16.7  1020.9  0.00  0.00   0.006   0.000   24.7    51   13.9   24.7   9.35  .0734    116    1    100.0    5 
15/07/19  23:50   16.7   16.7   16.6    78   12.8   1.0    SE   0.08   5.0    SE   16.7   16.7   16.7  1020.8  0.00  0.00   0.006   0.000   24.7    51   13.9   24.7   9.35  .0734    116    1    100.0    5 
15/07/19  23:55   16.6   16.7   16.6    78   12.8   0.0    SE   0.00   3.0    SE   16.6   16.6   16.6  1020.8  0.00  0.00   0.006   0.000   24.7    51   13.9   24.7   9.35  .0734    117    1    100.0    5 
16/07/19  00:00   16.6   16.7   16.6    78   12.8   0.0    SE   0.00   4.0    SE   16.6   16.6   16.6  1020.8  0.00  0.00   0.006   0.000   24.7    51   13.9   24.7   9.35  .0734    117    1    100.0    5 
16/07/19   0:05   16.6   16.6   16.6    78   12.7   0.0    SE   0.00   3.0    SE   16.6   16.6   16.6  1020.8  0.00  0.00   0.006   0.000   24.7    51   13.9   24.7   9.35  .0734    116    1    100.0    5 
16/07/19   0:10   16.6   16.6   16.6    78   12.7   0.0    SE   0.00   3.0    SE   16.6   16.6   16.6  1020.7  0.00  0.00   0.006   0.000   24.7    51   13.9   24.7   9.35  .0734    117    1    100.0    5 
16/07/19   0:15   16.5   16.6   16.5    78   12.6   0.0    SE   0.00   3.0    SE   16.5   16.5   16.5  1020.7  0.00  0.00   0.006   0.000   24.7    51   13.9   24.7   9.35  .0734    117    1    100.0    5 
16/07/19   0:20   16.5   16.5   16.5    78   12.6   0.0    SE   0.00   1.0    SE   16.5   16.5   16.5  1020.7  0.00  0.00   0.006   0.000   24.7    51   13.9   24.7   9.35  .0734    116    1    100.0    5 
16/07/19   0:25   16.5   16.5   16.4    78   12.6   0.0    SE   0.00   1.0    SE   16.5   16.5   16.5  1020.7  0.00  0.00   0.006   0.000   24.7    51   13.9   24.7   9.35  .0734    116    1    100.0    5 
16/07/19   0:30   16.5   16.5   16.5    78   12.6   1.0    SE   0.08   4.0    SE   16.5   16.5   16.5  1020.7  0.00  0.00   0.006   0.000   24.6    51   13.8   24.6   9.35  .0734    115    1    100.0    5 
16/07/19   0:35   16.5   16.5   16.5    78   12.6   1.0    SE   0.08   5.0    SE   16.5   16.5   16.5  1020.7  0.00  0.00   0.006   0.000   24.6    51   13.8   24.6   9.35  .0734    116    1    100.0    5 
16/07/19   0:40   16.5   16.6   16.5    78   12.6   0.0    SE   0.00   3.0    SE   16.5   16.5   16.5  1020.7  0.00  0.00   0.006   0.000   24.5    51   13.7   24.5   9.35  .0735    116    1    100.0    5 
16/07/19   0:45   16.5   16.6   16.5    78   12.6   1.0    SE   0.08   4.0    SE   16.5   16.5   16.5  1020.7  0.00  0.00   0.006   0.000   24.4    51   13.6   24.5   9.35  .0735    116    1    100.0    5 
16/07/19   0:50   16.5   16.6   16.5    78   12.6   0.0    SE   0.00   2.0    SE   16.5   16.5   16.5  1020.7  0.00  0.00   0.006   0.000   24.4    51   13.6   24.4   9.35  .0735    116    1    100.0    5 
16/07/19   0:55   16.5   16.6   16.5    78   12.6   1.0    SE   0.08   5.0    SE   16.5   16.5   16.5  1020.5  0.00  0.00   0.006   0.000   24.4    51   13.6   24.4   9.35  .0735    117    1    100.0    5 
16/07/19   1:00   16.5   16.6   16.5    78   12.6   1.0    SE   0.08   5.0    SE   16.5   16.5   16.5  1020.6  0.00  0.00   0.006   0.000   24.3    51   13.5   24.4   9.35  .0735    118    1    100.0    5 
16/07/19   1:05   16.4   16.5   16.4    78   12.6   1.0    SE   0.08   4.0    SE   16.4   16.4   16.4  1020.5  0.00  0.00   0.007   0.000   24.3    51   13.5   24.3   9.35  .0735    116    1    100.0    5 
16/07/19   1:10   16.4   16.4   16.4    78   12.5   1.0    SE   0.08   5.0    SE   16.4   16.4   16.4  1020.5  0.00  0.00   0.007   0.000   24.2    51   13.4   24.3   9.35  .0735    117    1    100.0    5 
16/07/19   1:15   16.4   16.4   16.4    78   12.5   0.0   ---   0.00   0.0   ---   16.4   16.4   16.4  1020.4  0.00  0.00   0.007   0.000   24.3    51   13.5   24.3   9.35  .0735    116    1    100.0    5 
16/07/19   1:20   16.4   16.4   16.4    78   12.6   0.0   ---   0.00   0.0   ---   16.4   16.4   16.4  1020.4  0.00  0.00   0.007   0.000   24.3    51   13.5   24.3   9.35  .0735    116    1    100.0    5 
16/07/19   1:25   16.4   16.4   16.4    78   12.6   0.0    SE   0.00   4.0    SE   16.4   16.4   16.4  1020.3  0.00  0.00   0.007   0.000   24.3    51   13.5   24.3   9.35  .0735    116    1    100.0    5 
16/07/19   1:30   16.4   16.4   16.4    78   12.6   0.0   ---   0.00   0.0   ---   16.4   16.4   16.4  1020.3  0.00  0.00   0.007   0.000   24.3    51   13.5   24.4   9.35  .0735    117    1    100.0    5 
16/07/19   1:35   16.5   16.5   16.4    78   12.6   0.0    SE   0.00   4.0    SE   16.5   16.5   16.5  1020.3  0.00  0.00   0.006   0.000   24.3    51   13.5   24.4   9.35  .0735    117    1    100.0    5 
16/07/19   1:40   16.5   16.5   16.4    78   12.6   1.0    SE   0.08   3.0    SE   16.5   16.5   16.5  1020.3  0.00  0.00   0.006   0.000   24.3    51   13.5   24.4   9.35  .0735    117    1    100.0    5 
16/07/19   1:45   16.5   16.6   16.5    78   12.6   0.0    SE   0.00   4.0    SE   16.5   16.5   16.5  1020.3  0.00  0.00   0.006   0.000   24.3    51   13.5   24.4   9.35  .0735    117    1    100.0    5 
16/07/19   1:50   16.6   16.6   16.5    78   12.7   1.0    SE   0.08   4.0    SE   16.6   16.6   16.6  1020.3  0.00  0.00   0.006   0.000   24.3    51   13.5   24.4   9.35  .0735    117    1    100.0    5 
16/07/19   1:55   16.6   16.6   16.6    78   12.7   0.0   ESE   0.00   1.0   ESE   16.6   16.6   16.6  1020.2  0.00  0.00   0.006   0.000   24.3    51   13.5   24.3   9.35  .0735    115    1    100.0    5 
16/07/19   2:00   16.6   16.6   16.6    78   12.7   0.0   ---   0.00   0.0   ---   16.6   16.6   16.6  1020.1  0.00  0.00   0.006   0.000   24.3    51   13.5   24.3   9.35  .0735    117    1    100.0    5 
16/07/19   2:05   16.6   16.6   16.6    78   12.7   1.0   ESE   0.08   5.0   ESE   16.6   16.6   16.6  1020.1  0.00  0.00   0.006   0.000   24.2    51   13.4   24.3   9.35  .0735    116    1    100.0    5 
16/07/19   2:10   16.5   16.6   16.5    78   12.6   0.0   ESE   0.00   1.0   ESE   16.5   16.5   16.5  1020.1  0.00  0.00   0.006   0.000   24.2    51   13.4   24.2   9.35  .0735    117    1    100.0    5 
16/07/19   2:15   16.5   16.6   16.5    77   12.5   0.0   ---   0.00   0.0   ---   16.5   16.4   16.4  1020.1  0.00  0.00   0.006   0.000   24.2    51   13.4   24.2   9.35  .0735    115    1    100.0    5 
16/07/19   2:20   16.4   16.5   16.4    77   12.4   0.0   ---   0.00   0.0   ---   16.4   16.4   16.4  1020.1  0.00  0.00   0.007   0.000   24.2    51   13.4   24.2   9.35  .0735    117    1    100.0    5 
16/07/19   2:25   16.4   16.4   16.4    77   12.3   0.0   ---   0.00   0.0   ---   16.4   16.3   16.3  1020.0  0.00  0.00   0.007   0.000   24.2    51   13.4   24.2   9.35  .0735    116    1    100.0    5 
16/07/19   2:30   16.4   16.4   16.3    77   12.3   0.0   ---   0.00   0.0   ---   16.4   16.3   16.3  1020.0  0.00  0.00   0.007   0.000   24.2    51   13.4   24.2   9.35  .0735    117    1    100.0    5 
16/07/19   2:35   16.3   16.4   16.3    77   12.3   0.0   ---   0.00   0.0   ---   16.3   16.3   16.3  1020.0  0.00  0.00   0.007   0.000   24.2    51   13.4   24.3   9.35  .0735    115    1    100.0    5 
16/07/19   2:40   16.3   16.3   16.3    77   12.3   0.0   ---   0.00   0.0   ---   16.3   16.3   16.3  1019.9  0.00  0.00   0.007   0.000   24.2    51   13.4   24.3   9.35  .0735    116    1    100.0    5 
16/07/19   2:45   16.3   16.3   16.3    77   12.2   0.0   ---   0.00   0.0   ---   16.3   16.2   16.2  1020.0  0.00  0.00   0.007   0.000   24.2    51   13.4   24.3   9.35  .0735    117    1    100.0    5 
16/07/19   2:50   16.3   16.3   16.3    77   12.2   0.0   ---   0.00   0.0   ---   16.3   16.2   16.2  1019.9  0.00  0.00   0.007   0.000   24.2    51   13.4   24.3   9.35  .0735    117    1    100.0    5 
16/07/19   2:55   16.2   16.3   16.2    77   12.2   0.0   ---   0.00   0.0   ---   16.2   16.1   16.1  1019.8  0.00  0.00   0.007   0.000   24.2    51   13.4   24.3   9.35  .0735    115    1    100.0    5 
16/07/19   3:00   16.2   16.2   16.2    77   12.2   0.0   ---   0.00   0.0   ---   16.2   16.1   16.1  1019.8  0.00  0.00   0.007   0.000   24.2    51   13.4   24.3   9.35  .0735    117    1    100.0    5 
16/07/19   3:05   16.2   16.2   16.2    77   12.1   0.0   ---   0.00   0.0   ---   16.2   16.1   16.1  1019.8  0.00  0.00   0.008   0.000   24.2    51   13.4   24.3   9.35  .0735    118    1    100.0    5 
16/07/19   3:10   16.2   16.2   16.2    77   12.1   0.0   ---   0.00   0.0   ---   16.2   16.1   16.1  1019.8  0.00  0.00   0.008   0.000   24.2    51   13.4   24.3   9.35  .0735    114    1    100.0    5 
16/07/19   3:15   16.2   16.2   16.2    78   12.3   0.0   ---   0.00   0.0   ---   16.2   16.1   16.1  1019.7  0.00  0.00   0.008   0.000   24.2    51   13.4   24.3   9.35  .0735    116    1    100.0    5 
16/07/19   3:20   16.1   16.2   16.1    78   12.3   0.0   ---   0.00   0.0   ---   16.1   16.1   16.1  1019.7  0.00  0.00   0.008   0.000   24.2    51   13.4   24.2   9.35  .0735    116    1    100.0    5 
16/07/19   3:25   16.1   16.1   16.1    78   12.2   0.0   ---   0.00   0.0   ---   16.1   16.0   16.0  1019.7  0.00  0.00   0.008   0.000   24.2    51   13.4   24.2   9.35  .0735    117    1    100.0    5 
16/07/19   3:30   15.9   16.1   15.9    78   12.1   0.0   ---   0.00   0.0   ---   15.9   15.9   15.9  1019.7  0.00  0.00   0.008   0.000   24.1    51   13.3   24.2   9.35  .0735    117    1    100.0    5 
16/07/19   3:35   15.9   15.9   15.9    78   12.1   0.0   ---   0.00   0.0   ---   15.9   15.8   15.8  1019.6  0.00  0.00   0.008   0.000   24.1    51   13.3   24.2   9.35  .0735    116    1    100.0    5 
16/07/19   3:40   15.8   15.9   15.8    78   11.9   0.0   ---   0.00   0.0   ---   15.8   15.7   15.7  1019.6  0.00  0.00   0.009   0.000   24.1    51   13.3   24.1   9.35  .0735    117    1    100.0    5 
16/07/19   3:45   15.7   15.8   15.7    78   11.9   0.0   ---   0.00   0.0   ---   15.7   15.6   15.6  1019.6  0.00  0.00   0.009   0.000   24.1    51   13.3   24.1   9.35  .0735    117    1    100.0    5 
16/07/19   3:50   15.6   15.7   15.6    78   11.8   0.0   ---   0.00   0.0   ---   15.6   15.5   15.5  1019.6  0.00  0.00   0.009   0.000   24.1    51   13.3   24.1   9.35  .0735    117    1    100.0    5 
16/07/19   3:55   15.5   15.6   15.5    78   11.7   0.0   ---   0.00   0.0   ---   15.5   15.4   15.4  1019.6  0.00  0.00   0.010   0.000   24.1    51   13.3   24.2   9.35  .0735    117    1    100.0    5 
16/07/19   4:00   15.4   15.5   15.4    79   11.8   0.0   ---   0.00   0.0   ---   15.4   15.3   15.3  1019.6  0.00  0.00   0.010   0.000   24.1    51   13.3   24.2   9.35  .0735    117    1    100.0    5 
16/07/19   4:05   15.3   15.4   15.3    79   11.7   0.0   ---   0.00   0.0   ---   15.3   15.2   15.2  1019.5  0.00  0.00   0.011   0.000   24.1    51   13.3   24.1   9.35  .0735    116    1    100.0    5 
16/07/19   4:10   15.2   15.3   15.2    79   11.5   0.0   ---   0.00   0.0   ---   15.2   15.1   15.1  1019.4  0.00  0.00   0.011   0.000   24.1    51   13.3   24.1   9.35  .0735    117    1    100.0    5 
16/07/19   4:15   15.1   15.2   15.1    79   11.4   0.0   ---   0.00   0.0   ---   15.1   14.9   14.9  1019.4  0.00  0.00   0.011   0.000   24.1    51   13.3   24.1   9.35  .0735    116    1    100.0    5 
16/07/19   4:20   14.9   15.1   14.9    79   11.3   0.0   ---   0.00   0.0   ---   14.9   14.8   14.8  1019.4  0.00  0.00   0.012   0.000   24.0    51   13.2   24.1   9.35  .0735    115    1    100.0    5 
16/07/19   4:25   14.8   14.9   14.8    80   11.4   0.0   ---   0.00   0.0   ---   14.8   14.7   14.7  1019.4  0.00  0.00   0.012   0.000   23.9    51   13.2   24.1   9.35  .0736    117    1    100.0    5 
16/07/19   4:30   14.7   14.8   14.7    80   11.3   0.0   ---   0.00   0.0   ---   14.7   14.6   14.6  1019.4  0.00  0.00   0.013   0.000   23.8    51   13.1   23.9   9.35  .0736    116    1    100.0    5 
16/07/19   4:35   14.6   14.7   14.6    80   11.2   0.0   ---   0.00   0.0   ---   14.6   14.5   14.5  1019.4  0.00  0.00   0.013   0.000   23.8    51   13.0   23.8   9.35  .0736    116    1    100.0    5 
16/07/19   4:40   14.6   14.6   14.6    80   11.1   0.0   ---   0.00   0.0   ---   14.6   14.4   14.4  1019.4  0.00  0.00   0.013   0.000   23.8    51   13.0   23.8   9.35  .0736    117    1    100.0    5 
16/07/19   4:45   14.4   14.5   14.4    80   11.0   0.0   ---   0.00   0.0   ---   14.4   14.3   14.3  1019.3  0.00  0.00   0.014   0.000   23.8    51   13.0   23.8   9.35  .0736    116    1    100.0    5 
16/07/19   4:50   14.3   14.4   14.3    80   10.9   0.0   ---   0.00   0.0   ---   14.3   14.2   14.2  1019.3  0.00  0.00   0.014   0.000   23.8    51   13.0   23.8   9.35  .0736    117    1    100.0    5 
16/07/19   4:55   14.2   14.3   14.2    80   10.8   0.0   ---   0.00   0.0   ---   14.2   14.1   14.1  1019.3  0.00  0.00   0.014   0.000   23.7    51   12.9   23.7   9.36  .0736    116    1    100.0    5 
16/07/19   5:00   14.1   14.2   14.1    81   10.9   0.0   ---   0.00   0.0   ---   14.1   14.0   14.0  1019.4  0.00  0.00   0.015   0.000   23.6    51   12.9   23.6   9.36  .0737    116    1    100.0    5 
16/07/19   5:05   14.1   14.1   14.1    81   10.8   0.0   ---   0.00   0.0   ---   14.1   13.9   13.9  1019.5  0.00  0.00   0.015   0.000   23.6    51   12.9   23.6   9.36  .0737    116    1    100.0    5 
16/07/19   5:10   14.0   14.1   14.0    81   10.8   0.0   ---   0.00   0.0   ---   14.0   13.9   13.9  1019.4  0.00  0.00   0.015   0.000   23.6    51   12.8   23.6   9.36  .0737    115    1    100.0    5 
16/07/19   5:15   13.9   14.0   13.9    81   10.7   0.0   ---   0.00   0.0   ---   13.9   13.8   13.8  1019.4  0.00  0.00   0.015   0.000   23.6    51   12.8   23.6   9.36  .0737    116    1    100.0    5 
16/07/19   5:20   13.9   13.9   13.9    81   10.7   0.0   ---   0.00   0.0   ---   13.9   13.7   13.7  1019.4  0.00  0.00   0.015   0.000   23.4    51   12.7   23.4   9.37  .0737    116    1    100.0    5 
16/07/19   5:25   13.8   13.9   13.8    81   10.6   0.0   ---   0.00   0.0   ---   13.8   13.7   13.7  1019.3  0.00  0.00   0.016   0.000   23.4    51   12.7   23.3   9.37  .0737    117    1    100.0    5 
16/07/19   5:30   13.8   13.8   13.8    81   10.6   0.0   ---   0.00   0.0   ---   13.8   13.6   13.6  1019.4  0.00  0.00   0.016   0.000   23.3    51   12.6   23.2   9.37  .0738    115    1    100.0    5 
16/07/19   5:35   13.7   13.8   13.7    81   10.5   0.0   ---   0.00   0.0   ---   13.7   13.6   13.6  1019.4  0.00  0.00   0.016   0.000   23.3    51   12.6   23.2   9.37  .0738    116    1    100.0    5 
16/07/19   5:40   13.7   13.7   13.7    81   10.5   0.0   ---   0.00   0.0   ---   13.7   13.6   13.6  1019.4  0.00  0.00   0.016   0.000   23.3    51   12.6   23.2   9.37  .0737    117    1    100.0    5 
16/07/19   5:45   13.8   13.8   13.7    81   10.6   0.0   ---   0.00   0.0   ---   13.8   13.6   13.6  1019.4  0.00  0.00   0.016   0.000   23.3    51   12.6   23.2   9.37  .0737    117    1    100.0    5 
16/07/19   5:50   13.8   13.8   13.7    81   10.6   0.0   ---   0.00   0.0   ---   13.8   13.6   13.6  1019.5  0.00  0.00   0.016   0.000   23.3    51   12.6   23.2   9.37  .0738    117    1    100.0    5 
16/07/19   5:55   13.8   13.8   13.8    82   10.8   0.0   ---   0.00   0.0   ---   13.8   13.7   13.7  1019.6  0.00  0.00   0.016   0.000   23.3    51   12.6   23.2   9.37  .0738    117    1    100.0    5 
16/07/19   6:00   13.8   13.8   13.8    82   10.8   0.0   WSW   0.00   1.0   WSW   13.8   13.7   13.7  1019.6  0.00  0.00   0.016   0.000   23.3    51   12.6   23.2   9.37  .0738    116    1    100.0    5 
16/07/19   6:05   13.8   13.8   13.8    82   10.8   0.0   ---   0.00   0.0   ---   13.8   13.7   13.7  1019.6  0.00  0.00   0.016   0.000   23.3    51   12.6   23.2   9.37  .0738    113    1     99.1    5 
16/07/19   6:10   13.9   13.9   13.8    82   10.9   0.0   ---   0.00   0.0   ---   13.9   13.8   13.8  1019.6  0.00  0.00   0.015   0.000   23.3    51   12.6   23.2   9.37  .0738    117    1    100.0    5 
16/07/19   6:15   13.9   13.9   13.9    82   10.9   0.0   ---   0.00   0.0   ---   13.9   13.8   13.8  1019.6  0.00  0.00   0.015   0.000   23.3    51   12.6   23.2   9.37  .0738    118    1    100.0    5 
16/07/19   6:20   14.0   14.0   13.9    82   11.0   0.0   ---   0.00   0.0   ---   14.0   13.9   13.9  1019.7  0.00  0.00   0.015   0.000   23.3    51   12.6   23.2   9.37  .0738    117    1    100.0    5 
16/07/19   6:25   14.1   14.1   14.0    82   11.1   0.0   ---   0.00   0.0   ---   14.1   14.0   14.0  1019.7  0.00  0.00   0.015   0.000   23.4    51   12.7   23.3   9.37  .0737    116    1    100.0    5 
16/07/19   6:30   14.2   14.2   14.1    82   11.1   0.0   ---   0.00   0.0   ---   14.2   14.1   14.1  1019.7  0.00  0.00   0.014   0.000   23.3    51   12.6   23.2   9.37  .0738    117    1    100.0    5 
16/07/19   6:35   14.3   14.3   14.2    82   11.2   0.0   ---   0.00   0.0   ---   14.3   14.2   14.2  1019.7  0.00  0.00   0.014   0.000   23.3    51   12.6   23.2   9.37  .0738    116    1    100.0    5 
16/07/19   6:40   14.4   14.4   14.3    82   11.4   0.0   ---   0.00   0.0   ---   14.4   14.3   14.3  1019.7  0.00  0.00   0.014   0.000   23.3    52   12.9   23.3   9.57  .0737    116    1    100.0    5 
16/07/19   6:45   14.5   14.5   14.4    82   11.5   0.0   ---   0.00   0.0   ---   14.5   14.4   14.4  1019.7  0.00  0.00   0.013   0.000   23.3    52   12.9   23.3   9.57  .0737    116    1    100.0    5 
16/07/19   6:50   14.7   14.7   14.5    82   11.6   0.0   ---   0.00   0.0   ---   14.7   14.6   14.6  1019.7  0.00  0.00   0.013   0.000   23.3    52   12.9   23.3   9.57  .0737    117    1    100.0    5 
16/07/19   6:55   14.8   14.8   14.7    82   11.7   0.0   ---   0.00   0.0   ---   14.8   14.7   14.7  1019.7  0.00  0.00   0.012   0.000   23.4    52   13.0   23.3   9.57  .0737    116    1    100.0    5 
16/07/19   7:00   14.9   14.9   14.8    82   11.9   0.0   ---   0.00   0.0   ---   14.9   14.9   14.9  1019.8  0.00  0.00   0.012   0.000   23.4    52   13.0   23.4   9.57  .0737    117    1    100.0    5 
16/07/19   7:05   15.1   15.1   14.9    82   12.0   0.0   ---   0.00   0.0   ---   15.1   15.0   15.0  1019.7  0.00  0.00   0.011   0.000   23.4    52   13.0   23.4   9.57  .0737    116    1    100.0    5 
16/07/19   7:10   15.2   15.2   15.1    82   12.1   0.0   ---   0.00   0.0   ---   15.2   15.1   15.1  1019.8  0.00  0.00   0.011   0.000   23.5    52   13.1   23.5   9.56  .0737    116    1    100.0    5 
16/07/19   7:15   15.3   15.3   15.2    82   12.2   0.0    SW   0.00   1.0    SW   15.3   15.2   15.2  1019.8  0.00  0.00   0.011   0.000   23.6    52   13.1   23.6   9.56  .0737    117    1    100.0    5 
16/07/19   7:20   15.4   15.4   15.3    81   12.2   0.0   ---   0.00   0.0   ---   15.4   15.4   15.4  1019.9  0.00  0.00   0.010   0.000   23.6    52   13.1   23.6   9.56  .0737    117    1    100.0    5 
16/07/19   7:25   15.6   15.6   15.4    81   12.3   0.0   ---   0.00   0.0   ---   15.6   15.5   15.5  1019.9  0.00  0.00   0.010   0.000   23.6    52   13.2   23.7   9.56  .0737    117    1    100.0    5 
16/07/19   7:30   15.7   15.7   15.6    81   12.5   0.0   ---   0.00   0.0   ---   15.7   15.7   15.7  1019.9  0.00  0.00   0.009   0.000   23.7    52   13.2   23.7   9.56  .0737    116    1    100.0    5 
16/07/19   7:35   15.8   15.8   15.7    81   12.5   0.0   ---   0.00   0.0   ---   15.8   15.8   15.8  1019.9  0.00  0.00   0.009   0.000   23.6    52   13.2   23.7   9.56  .0737    117    1    100.0    5 
16/07/19   7:40   15.9   15.9   15.8    81   12.6   0.0   ---   0.00   0.0   ---   15.9   15.9   15.9  1019.9  0.00  0.00   0.008   0.000   23.6    53   13.5   23.7   9.67  .0737    116    1    100.0    5 
16/07/19   7:45   15.9   15.9   15.9    80   12.5   0.0   ---   0.00   0.0   ---   15.9   15.9   15.9  1019.9  0.00  0.00   0.008   0.000   23.6    53   13.5   23.7   9.67  .0736    117    1    100.0    5 
16/07/19   7:50   16.0   16.1   15.9    80   12.5   0.0   ---   0.00   0.0   ---   16.0   16.0   16.0  1019.9  0.00  0.00   0.008   0.000   23.7    53   13.5   23.8   9.67  .0736    117    1    100.0    5 
16/07/19   7:55   16.1   16.1   16.1    80   12.7   0.0   ---   0.00   0.0   ---   16.1   16.1   16.1  1019.8  0.00  0.00   0.008   0.000   23.7    53   13.5   23.8   9.67  .0736    117    1    100.0    5 
16/07/19   8:00   16.2   16.2   16.1    80   12.7   0.0   ---   0.00   0.0   ---   16.2   16.2   16.2  1019.9  0.00  0.00   0.008   0.000   23.7    53   13.5   23.8   9.67  .0736    116    1    100.0    5 
16/07/19   8:05   16.2   16.2   16.2    79   12.5   0.0   ---   0.00   0.0   ---   16.2   16.2   16.2  1019.9  0.00  0.00   0.008   0.000   23.7    53   13.5   23.8   9.67  .0736    117    1    100.0    5 
16/07/19   8:10   16.3   16.3   16.2    80   12.8   0.0   ---   0.00   0.0   ---   16.3   16.3   16.3  1019.9  0.00  0.00   0.007   0.000   23.8    53   13.6   23.9   9.66  .0736    116    1    100.0    5 
16/07/19   8:15   16.3   16.3   16.3    79   12.7   0.0   ---   0.00   0.0   ---   16.3   16.3   16.3  1019.9  0.00  0.00   0.007   0.000   23.7    53   13.6   23.8   9.66  .0736    117    1    100.0    5 
16/07/19   8:20   16.4   16.4   16.4    79   12.8   0.0   ---   0.00   0.0   ---   16.4   16.4   16.4  1019.9  0.00  0.00   0.007   0.000   23.8    52   13.3   23.9   9.55  .0736    117    1    100.0    5 
16/07/19   8:25   16.6   16.6   16.4    79   13.0   0.0   ---   0.00   0.0   ---   16.6   16.7   16.7  1019.9  0.00  0.00   0.006   0.000   23.8    52   13.3   23.9   9.55  .0736    116    1    100.0    5 
16/07/19   8:30   16.7   16.7   16.6    78   12.9   0.0   ---   0.00   0.0   ---   16.7   16.7   16.7  1019.9  0.00  0.00   0.006   0.000   23.8    52   13.4   23.9   9.55  .0736    117    1    100.0    5 
16/07/19   8:35   16.8   16.8   16.7    78   12.9   0.0   ---   0.00   0.0   ---   16.8   16.8   16.8  1019.8  0.00  0.00   0.005   0.000   23.8    53   13.7   24.0   9.65  .0736    116    1    100.0    5 
16/07/19   8:40   16.9   16.9   16.8    78   13.1   0.0   ---   0.00   0.0   ---   16.9   17.0   17.0  1019.8  0.00  0.00   0.005   0.000   23.9    53   13.7   24.1   9.65  .0736    115    1    100.0    5 
16/07/19   8:45   17.1   17.1   16.9    78   13.2   0.0   ---   0.00   0.0   ---   17.1   17.2   17.2  1019.8  0.00  0.00   0.004   0.000   23.9    53   13.8   24.1   9.65  .0735    117    1    100.0    5 
16/07/19   8:50   17.3   17.3   17.2    78   13.5   0.0   ---   0.00   0.0   ---   17.3   17.4   17.4  1019.7  0.00  0.00   0.003   0.000   23.9    53   13.8   24.1   9.65  .0735    116    1    100.0    5 
16/07/19   8:55   17.6   17.6   17.3    77   13.5   0.0   ---   0.00   0.0   ---   17.6   17.7   17.7  1019.7  0.00  0.00   0.003   0.000   24.0    53   13.8   24.2   9.65  .0735    115    1    100.0    5 
16/07/19   9:00   17.7   17.7   17.6    77   13.6   0.0     W   0.00   1.0     W   17.7   17.8   17.8  1019.7  0.00  0.00   0.002   0.000   24.1    53   13.9   24.2   9.65  .0735    117    1    100.0    5 
16/07/19   9:05   17.9   17.9   17.7    76   13.7   0.0     W   0.00   1.0     W   17.9   18.1   18.1  1019.8  0.00  0.00   0.001   0.000   24.2    53   14.0   24.3   9.65  .0735    117    1    100.0    5 
16/07/19   9:10   17.9   18.0   17.9    75   13.4   0.0     W   0.00   1.0     W   17.9   18.1   18.1  1019.7  0.00  0.00   0.001   0.000   24.2    53   14.0   24.3   9.65  .0734    117    1    100.0    5 
16/07/19   9:15   18.1   18.1   17.9    76   13.8   0.0   WSW   0.00   1.0     W   18.1   18.3   18.3  1019.6  0.00  0.00   0.001   0.000   24.2    53   14.0   24.3   9.65  .0734    117    1    100.0    5 
16/07/19   9:20   18.3   18.3   18.1    76   14.0   0.0   WSW   0.00   1.0   WSW   18.3   18.5   18.5  1019.6  0.00  0.00   0.000   0.000   24.3    53   14.1   24.4   9.65  .0734    117    1    100.0    5 
16/07/19   9:25   18.4   18.4   18.3    75   13.9   0.0   WSW   0.00   1.0   WSW   18.4   18.6   18.6  1019.6  0.00  0.00   0.000   0.000   24.4    53   14.2   24.5   9.65  .0734    116    1    100.0    5 
16/07/19   9:30   18.4   18.4   18.4    75   13.9   3.0   WSW   0.25   6.0   WSW   18.4   18.6   18.6  1019.5  0.00  0.00   0.000   0.000   24.4    53   14.2   24.5   9.65  .0734    116    1    100.0    5 
16/07/19   9:35   18.5   18.5   18.4    75   14.0   2.0    SW   0.17   5.0    SW   18.5   18.7   18.7  1019.5  0.00  0.00   0.000   0.001   24.4    53   14.2   24.6   9.65  .0734    117    1    100.0    5 
16/07/19   9:40   18.6   18.6   18.5    74   13.8   1.0    SW   0.08   4.0    SW   18.6   18.7   18.7  1019.6  0.00  0.00   0.000   0.001   24.5    53   14.3   24.6   9.65  .0733    117    1    100.0    5 
16/07/19   9:45   18.6   18.6   18.6    74   13.8   2.0    SW   0.17   5.0    SW   18.6   18.7   18.7  1019.5  0.00  0.00   0.000   0.001   24.6    53   14.3   24.7   9.65  .0733    117    1    100.0    5 
16/07/19   9:50   18.6   18.6   18.6    74   13.9   2.0   SSW   0.17   6.0   SSW   18.6   18.8   18.8  1019.4  0.00  0.00   0.000   0.001   24.6    53   14.4   24.7   9.65  .0733    117    1    100.0    5 
16/07/19   9:55   18.8   18.8   18.6    74   14.0   2.0   SSW   0.17   5.0   SSW   18.8   19.0   19.0  1019.4  0.00  0.00   0.000   0.002   24.7    53   14.4   24.7   9.65  .0733    116    1    100.0    5 
16/07/19  10:00   18.9   18.9   18.8    74   14.2   3.0     S   0.25   6.0     S   18.9   19.2   19.2  1019.3  0.00  0.00   0.000   0.002   24.7    53   14.5   24.8   9.65  .0733    117    1    100.0    5 
16/07/19  10:05   19.1   19.2   18.9    74   14.4   3.0     S   0.25   6.0     S   19.1   19.4   19.4  1019.3  0.00  0.00   0.000   0.003   24.7    53   14.4   24.7   9.65  .0733    117    1    100.0    5 
16/07/19  10:10   19.2   19.2   19.2    73   14.2   4.0   SSE   0.33   7.0   SSE   19.2   19.4   19.4  1019.4  0.00  0.00   0.000   0.003   24.7    53   14.5   24.8   9.65  .0733    116    1    100.0    5 
16/07/19  10:15   19.3   19.3   19.2    73   14.3   3.0   SSE   0.25   6.0   SSE   19.3   19.6   19.6  1019.4  0.00  0.00   0.000   0.003   24.7    54   14.7   24.8   9.82  .0733    117    1    100.0    5 
16/07/19  10:20   19.3   19.3   19.3    72   14.1   5.0   SSE   0.42   7.0   SSE   19.3   19.6   19.6  1019.3  0.00  0.00   0.000   0.003   24.7    53   14.5   24.8   9.65  .0733    117    1    100.0    5 
16/07/19  10:25   19.3   19.3   19.3    72   14.1   5.0   SSE   0.42   7.0   SSE   19.3   19.6   19.6  1019.2  0.00  0.00   0.000   0.003   24.7    53   14.5   24.8   9.65  .0733    117    1    100.0    5 
16/07/19  10:30   19.3   19.3   19.3    72   14.2   4.0   SSE   0.33   7.0   SSE   19.3   19.6   19.6  1019.2  0.00  0.00   0.000   0.003   24.8    53   14.5   24.8   9.65  .0732    118    1    100.0    5 
16/07/19  10:35   19.2   19.3   19.2    72   14.0   4.0   SSE   0.33   7.0   SSE   19.2   19.4   19.4  1019.2  0.00  0.00   0.000   0.003   24.8    53   14.6   24.9   9.65  .0732    116    1    100.0    5 
16/07/19  10:40   19.2   19.2   19.2    72   14.0   4.0   SSE   0.33   6.0   SSE   19.2   19.4   19.4  1019.3  0.00  0.00   0.000   0.003   24.9    53   14.7   25.0   9.65  .0732    117    1    100.0    5 
16/07/19  10:45   19.2   19.3   19.2    72   14.0   4.0   SSE   0.33   8.0   SSE   19.2   19.4   19.4  1019.3  0.00  0.00   0.000   0.003   25.0    53   14.8   25.1   9.65  .0732    116    1    100.0    5 
16/07/19  10:50   19.1   19.2   19.1    72   13.9   4.0   SSE   0.33   7.0   SSE   19.1   19.3   19.3  1019.3  0.00  0.00   0.000   0.003   25.1    53   14.8   25.1   9.65  .0731    116    1    100.0    5 
16/07/19  10:55   19.1   19.1   19.1    72   13.9   5.0   SSE   0.42   8.0   SSE   19.1   19.3   19.3  1019.3  0.00  0.00   0.000   0.003   25.1    53   14.8   25.1   9.65  .0731    117    1    100.0    5 
16/07/19  11:00   19.0   19.1   19.0    72   13.8   5.0   SSE   0.42   7.0   SSE   19.0   19.2   19.2  1019.3  0.00  0.00   0.000   0.002   25.1    53   14.9   25.2   9.65  .0731    117    1    100.0    5 
16/07/19  11:05   19.0   19.0   19.0    73   14.0   5.0   SSE   0.42   8.0   SSE   19.0   19.2   19.2  1019.2  0.00  0.00   0.000   0.002   25.2    53   14.9   25.3   9.65  .0731    117    1    100.0    5 
16/07/19  11:10   18.9   19.1   18.9    72   13.7   5.0   SSE   0.42   8.0   SSE   18.9   19.1   19.1  1019.3  0.00  0.00   0.000   0.002   25.2    53   15.0   25.3   9.65  .0731    117    1    100.0    5 
16/07/19  11:15   18.9   18.9   18.9    73   14.0   5.0   SSE   0.42   8.0   SSE   18.9   19.2   19.2  1019.2  0.00  0.00   0.000   0.002   25.2    53   15.0   25.3   9.65  .0731    117    1    100.0    5 
16/07/19  11:20   19.2   19.2   18.9    73   14.2   5.0   SSE   0.42   8.0   SSE   19.2   19.4   19.4  1019.1  0.00  0.00   0.000   0.003   25.2    53   15.0   25.3   9.65  .0731    117    1    100.0    5 
16/07/19  11:25   19.3   19.3   19.2    73   14.3   5.0   SSE   0.42   8.0   SSE   19.3   19.6   19.6  1019.1  0.00  0.00   0.000   0.003   25.2    53   15.0   25.3   9.65  .0731    117    1    100.0    5 
16/07/19  11:30   19.6   19.6   19.3    72   14.4   5.0   SSE   0.42   7.0   SSE   19.6   19.9   19.9  1019.2  0.00  0.00   0.000   0.004   25.2    53   15.0   25.3   9.65  .0731    117    1    100.0    5 
16/07/19  11:35   19.6   19.6   19.6    72   14.4   5.0   SSE   0.42   7.0   SSE   19.6   19.9   19.9  1019.1  0.00  0.00   0.000   0.004   25.2    53   15.0   25.3   9.65  .0731    115    1    100.0    5 
16/07/19  11:40   19.6   19.7   19.6    71   14.2   5.0   SSE   0.42   8.0   SSE   19.6   19.8   19.8  1019.2  0.00  0.00   0.000   0.004   25.2    53   15.0   25.3   9.65  .0731    116    1    100.0    5 
16/07/19  11:45   19.6   19.6   19.6    72   14.4   5.0   SSE   0.42   8.0   SSE   19.6   19.9   19.9  1019.1  0.00  0.00   0.000   0.004   25.3    53   15.0   25.4   9.65  .0731    116    1    100.0    5 
16/07/19  11:50   19.5   19.6   19.5    71   14.1   6.0   SSE   0.50   8.0   SSE   19.5   19.8   19.8  1019.1  0.00  0.00   0.000   0.004   25.2    53   15.0   25.3   9.65  .0731    117    1    100.0    5 
16/07/19  11:55   19.6   19.6   19.5    71   14.2   6.0   SSE   0.50   8.0   SSE   19.6   19.8   19.8  1019.1  0.00  0.00   0.000   0.004   25.2    53   15.0   25.3   9.65  .0731    117    1    100.0    5 
16/07/19  12:00   19.6   19.6   19.6    72   14.4   5.0   SSE   0.42   7.0   SSE   19.6   19.9   19.9  1019.1  0.00  0.00   0.000   0.004   25.3    53   15.0   25.4   9.65  .0731    116    1    100.0    5 
16/07/19  12:05   19.7   19.7   19.6    71   14.3   5.0   SSE   0.42   8.0   SSE   19.7   20.1   20.1  1019.1  0.00  0.00   0.000   0.005   25.3    53   15.0   25.4   9.65  .0731    117    1    100.0    5 
16/07/19  12:10   19.8   19.8   19.7    70   14.2   6.0   SSE   0.50   9.0   SSE   19.8   20.1   20.1  1019.2  0.00  0.00   0.000   0.005   25.3    53   15.0   25.4   9.65  .0731    117    1    100.0    5 
16/07/19  12:15   19.8   19.9   19.8    70   14.2   5.0   SSE   0.42   8.0   SSE   19.8   20.1   20.1  1019.1  0.00  0.00   0.000   0.005   25.3    53   15.0   25.4   9.65  .0731    116    1    100.0    5 
16/07/19  12:20   19.7   19.8   19.7    69   13.9   6.0     S   0.50   9.0   SSE   19.7   19.9   19.9  1019.2  0.00  0.00   0.000   0.005   25.3    53   15.1   25.4   9.65  .0731    117    1    100.0    5 
16/07/19  12:25   19.7   19.7   19.7    69   13.9   6.0     S   0.50   9.0   SSE   19.7   19.9   19.9  1019.1  0.00  0.00   0.000   0.005   25.3    52   14.8   25.4   9.50  .0731    117    1    100.0    5 
16/07/19  12:30   19.7   19.7   19.7    69   13.9   6.0   SSE   0.50   8.0   SSE   19.7   19.9   19.9  1019.1  0.00  0.00   0.000   0.005   25.3    52   14.8   25.4   9.50  .0731    117    1    100.0    5 
16/07/19  12:35   19.8   19.8   19.7    70   14.2   6.0   SSE   0.50   9.0   SSE   19.8   20.1   20.1  1019.0  0.00  0.00   0.000   0.005   25.4    52   14.8   25.4   9.50  .0730    116    1    100.0    5 
16/07/19  12:40   19.8   19.8   19.8    69   14.0   5.0     S   0.42   9.0   SSE   19.8   20.1   20.1  1019.0  0.00  0.00   0.000   0.005   25.4    52   14.8   25.4   9.50  .0730    117    1    100.0    5 
16/07/19  12:45   19.9   19.9   19.8    68   13.9   5.0   SSE   0.42   8.0   SSE   19.9   20.2   20.2  1019.0  0.00  0.00   0.000   0.006   25.4    54   15.5   25.7   9.79  .0730    117    1    100.0    5 
16/07/19  12:50   19.7   19.9   19.7    68   13.6   6.0   SSE   0.50   9.0     S   19.7   19.9   19.9  1019.0  0.00  0.00   0.000   0.005   25.4    53   15.2   25.6   9.65  .0730    117    1    100.0    5 
16/07/19  12:55   19.7   19.8   19.7    69   13.9   6.0   SSE   0.50   9.0   SSE   19.7   19.9   19.9  1019.0  0.00  0.00   0.000   0.005   25.5    52   14.9   25.6   9.49  .0730    117    1    100.0    5 
16/07/19  13:00   19.7   19.7   19.7    69   13.8   6.0     S   0.50   9.0   SSE   19.7   19.9   19.9  1019.0  0.00  0.00   0.000   0.005   25.5    52   14.9   25.6   9.49  .0730    117    1    100.0    5 
16/07/19  13:05   19.9   19.9   19.7    69   14.0   6.0   SSE   0.50   9.0   SSE   19.9   20.2   20.2  1019.0  0.00  0.00   0.000   0.005   25.6    52   15.0   25.7   9.49  .0730    117    1    100.0    5 
16/07/19  13:10   19.9   20.0   19.9    68   13.9   6.0   SSE   0.50   9.0   SSE   19.9   20.2   20.2  1019.0  0.00  0.00   0.000   0.006   25.6    52   15.0   25.7   9.49  .0730    117    1    100.0    5 
16/07/19  13:15   19.9   20.0   19.8    68   13.8   6.0   SSE   0.50   9.0   SSE   19.9   20.1   20.1  1019.0  0.00  0.00   0.000   0.005   25.6    52   15.0   25.7   9.49  .0730    117    1    100.0    5 
16/07/19  13:20   19.9   19.9   19.8    69   14.0   6.0   SSE   0.50   9.0   SSE   19.9   20.2   20.2  1019.0  0.00  0.00   0.000   0.005   25.7    52   15.1   25.8   9.49  .0730    116    1    100.0    5 
16/07/19  13:25   19.9   19.9   19.9    68   13.9   7.0   SSE   0.58   9.0   SSE   19.9   20.2   20.2  1019.0  0.00  0.00   0.000   0.006   25.7    52   15.1   25.8   9.49  .0730    117    1    100.0    5 
16/07/19  13:30   19.8   19.9   19.8    68   13.7   7.0     S   0.58  10.0     S   19.8   20.0   20.0  1019.1  0.00  0.00   0.000   0.005   25.7    52   15.1   25.8   9.49  .0730    117    1    100.0    5 
16/07/19  13:35   19.4   19.8   19.4    69   13.6   8.0     S   0.67  10.0     S   19.1   19.6   19.3  1019.0  0.00  0.00   0.000   0.004   25.7    52   15.1   25.8   9.49  .0730    117    1    100.0    5 
16/07/19  13:40   19.4   19.4   19.3    70   13.8   7.0     S   0.58  10.0     S   19.4   19.6   19.6  1019.0  0.00  0.00   0.000   0.004   25.7    52   15.1   25.8   9.49  .0730    118    1    100.0    5 
16/07/19  13:45   19.3   19.4   19.3    69   13.4   8.0     S   0.67  11.0     S   18.9   19.4   19.1  1019.0  0.00  0.00   0.000   0.003   25.7    52   15.1   25.8   9.49  .0730    114    1    100.0    5 
16/07/19  13:50   19.3   19.3   19.3    70   13.7   7.0     S   0.58  11.0   SSE   19.3   19.4   19.4  1019.0  0.00  0.00   0.000   0.003   25.7    52   15.1   25.8   9.48  .0729    117    1    100.0    5 
16/07/19  13:55   19.2   19.3   19.2    70   13.6   7.0     S   0.58  10.0     S   19.2   19.3   19.3  1018.9  0.00  0.00   0.000   0.003   25.7    52   15.1   25.8   9.48  .0729    117    1    100.0    5 
16/07/19  14:00   19.1   19.2   19.1    70   13.5   7.0     S   0.58   9.0     S   19.1   19.3   19.3  1018.9  0.00  0.00   0.000   0.003   25.7    52   15.1   25.8   9.48  .0729    117    1    100.0    5 
16/07/19  14:05   19.1   19.2   19.1    70   13.5   7.0     S   0.58  10.0     S   19.1   19.3   19.3  1018.9  0.00  0.00   0.000   0.003   25.7    52   15.1   25.8   9.48  .0729    116    1    100.0    5 
16/07/19  14:10   19.1   19.2   19.1    70   13.5   7.0     S   0.58  10.0     S   19.1   19.2   19.2  1018.9  0.00  0.00   0.000   0.003   25.8    52   15.2   25.9   9.48  .0729    116    1    100.0    5 
16/07/19  14:15   19.0   19.0   18.9    71   13.6   7.0     S   0.58  10.0     S   19.0   19.2   19.2  1018.8  0.00  0.00   0.000   0.002   25.8    51   14.9   25.9   9.35  .0729    117    1    100.0    5 
16/07/19  14:20   19.1   19.1   19.0    71   13.7   6.0     S   0.50   8.0     S   19.1   19.2   19.2  1018.8  0.00  0.00   0.000   0.003   25.8    52   15.2   26.0   9.48  .0729    116    1    100.0    5 
16/07/19  14:25   19.1   19.1   19.0    71   13.7   6.0     S   0.50   9.0     S   19.1   19.2   19.2  1018.7  0.00  0.00   0.000   0.003   25.9    52   15.3   26.1   9.48  .0729    117    1    100.0    5 
16/07/19  14:30   19.1   19.1   19.1    71   13.7   7.0     S   0.58   9.0   SSW   19.1   19.3   19.3  1018.7  0.00  0.00   0.000   0.003   25.9    52   15.3   26.1   9.48  .0729    117    1    100.0    5 
16/07/19  14:35   19.1   19.1   19.1    71   13.7   6.0     S   0.50   8.0     S   19.1   19.3   19.3  1018.7  0.00  0.00   0.000   0.003   25.9    51   15.0   26.1   9.35  .0729    117    1    100.0    5 
16/07/19  14:40   19.2   19.2   19.1    70   13.6   6.0     S   0.50   8.0     S   19.2   19.3   19.3  1018.7  0.00  0.00   0.000   0.003   26.0    51   15.1   26.1   9.35  .0729    117    1    100.0    5 
16/07/19  14:45   19.3   19.3   19.2    71   13.9   6.0     S   0.50   9.0     S   19.3   19.6   19.6  1018.6  0.00  0.00   0.000   0.003   26.1    51   15.1   26.2   9.35  .0728    117    1    100.0    5 
16/07/19  14:50   19.4   19.4   19.3    70   13.8   7.0     S   0.58   8.0     S   19.4   19.6   19.6  1018.6  0.00  0.00   0.000   0.004   26.1    51   15.2   26.3   9.35  .0728    117    1    100.0    5 
16/07/19  14:55   19.4   19.4   19.3    71   14.0   6.0     S   0.50   8.0     S   19.4   19.7   19.7  1018.6  0.00  0.00   0.000   0.004   26.2    51   15.2   26.3   9.35  .0728    115    1    100.0    5 
16/07/19  15:00   19.5   19.6   19.4    71   14.1   7.0     S   0.58   8.0     S   19.5   19.8   19.8  1018.6  0.00  0.00   0.000   0.004   26.2    51   15.3   26.4   9.35  .0728    117    1    100.0    5 
16/07/19  15:05   19.6   19.6   19.4    71   14.2   6.0     S   0.50   9.0     S   19.6   19.8   19.8  1018.7  0.00  0.00   0.000   0.004   26.2    51   15.3   26.4   9.35  .0728    116    1    100.0    5 
16/07/19  15:10   19.4   19.6   19.4    71   14.0   6.0     S   0.50   7.0     S   19.4   19.7   19.7  1018.7  0.00  0.00   0.000   0.004   26.3    51   15.3   26.4   9.35  .0728    117    1    100.0    5 
16/07/19  15:15   19.3   19.4   19.3    71   13.9   6.0     S   0.50   8.0     S   19.3   19.6   19.6  1018.6  0.00  0.00   0.000   0.003   26.3    51   15.4   26.5   9.35  .0727    117    1    100.0    5 
16/07/19  15:20   19.3   19.3   19.3    71   13.9   6.0     S   0.50   8.0     S   19.3   19.5   19.5  1018.5  0.00  0.00   0.000   0.003   26.4    51   15.4   26.6   9.35  .0727    117    1    100.0    5 
16/07/19  15:25   19.3   19.3   19.3    71   13.9   7.0     S   0.58   8.0     S   19.3   19.5   19.5  1018.5  0.00  0.00   0.000   0.003   26.4    51   15.4   26.6   9.35  .0727    117    1    100.0    5 
16/07/19  15:30   19.3   19.3   19.3    71   13.9   6.0     S   0.50   9.0     S   19.3   19.6   19.6  1018.5  0.00  0.00   0.000   0.003   26.4    51   15.5   26.6   9.35  .0727    116    1    100.0    5 
16/07/19  15:35   19.3   19.3   19.3    72   14.1   6.0     S   0.50   8.0     S   19.3   19.6   19.6  1018.5  0.00  0.00   0.000   0.003   26.5    51   15.5   26.6   9.35  .0727    117    1    100.0    5 
16/07/19  15:40   19.4   19.4   19.3    72   14.3   6.0     S   0.50   9.0     S   19.4   19.7   19.7  1018.4  0.00  0.00   0.000   0.004   26.6    51   15.6   26.7   9.35  .0727    117    1    100.0    5 
16/07/19  15:45   19.3   19.4   19.3    71   13.9   6.0     S   0.50   8.0     S   19.3   19.6   19.6  1018.4  0.00  0.00   0.000   0.003   26.6    51   15.6   26.7   9.35  .0726    118    1    100.0    5 
16/07/19  15:50   19.3   19.3   19.3    72   14.1   6.0     S   0.50   8.0     S   19.3   19.6   19.6  1018.4  0.00  0.00   0.000   0.003   26.6    50   15.3   26.7   9.15  .0727    116    1    100.0    5 
16/07/19  15:55   19.3   19.3   19.3    72   14.2   7.0     S   0.58   9.0     S   19.3   19.6   19.6  1018.4  0.00  0.00   0.000   0.003   26.7    51   15.7   26.8   9.35  .0726    116    1    100.0    5 
16/07/19  16:00   19.3   19.3   19.3    72   14.2   6.0     S   0.50   8.0     S   19.3   19.6   19.6  1018.4  0.00  0.00   0.000   0.003   26.7    51   15.7   26.8   9.35  .0726    116    1    100.0    5 
16/07/19  16:05   19.3   19.3   19.3    72   14.2   6.0     S   0.50   7.0     S   19.3   19.6   19.6  1018.4  0.00  0.00   0.000   0.003   26.7    51   15.7   26.8   9.35  .0726    117    1    100.0    5 
16/07/19  16:10   19.3   19.3   19.3    72   14.2   5.0     S   0.42   7.0     S   19.3   19.6   19.6  1018.3  0.00  0.00   0.000   0.003   26.7    51   15.7   26.8   9.35  .0726    115    1    100.0    5 
16/07/19  16:15   19.2   19.3   19.2    72   14.0   6.0     S   0.50   8.0     S   19.2   19.4   19.4  1018.2  0.00  0.00   0.000   0.003   26.8    50   15.5   26.8   9.15  .0726    117    1    100.0    5 
16/07/19  16:20   19.3   19.3   19.2    72   14.1   6.0     S   0.50   8.0     S   19.3   19.6   19.6  1018.2  0.00  0.00   0.000   0.003   26.8    50   15.5   26.8   9.15  .0726    117    1    100.0    5 
16/07/19  16:25   19.2   19.3   19.2    72   14.0   6.0     S   0.50   9.0     S   19.2   19.4   19.4  1018.1  0.00  0.00   0.000   0.003   26.8    50   15.5   26.8   9.15  .0726    117    1    100.0    5 
16/07/19  16:30   19.2   19.3   19.2    72   14.0   5.0     S   0.42   7.0     S   19.2   19.4   19.4  1018.1  0.00  0.00   0.000   0.003   26.8    50   15.5   26.9   9.14  .0726    117    1    100.0    5 
16/07/19  16:35   19.2   19.2   19.1    73   14.3   5.0     S   0.42   7.0     S   19.2   19.5   19.5  1018.1  0.00  0.00   0.000   0.003   26.9    50   15.6   26.9   9.14  .0726    116    1    100.0    5 
16/07/19  16:40   19.2   19.2   19.2    72   14.0   5.0     S   0.42   7.0     S   19.2   19.4   19.4  1018.1  0.00  0.00   0.000   0.003   26.9    50   15.6   26.9   9.14  .0726    117    1    100.0    5 
16/07/19  16:45   19.2   19.3   19.2    72   14.0   5.0     S   0.42   7.0     S   19.2   19.4   19.4  1018.1  0.00  0.00   0.000   0.003   26.9    49   15.3   26.9   8.94  .0726    117    1    100.0    5 
16/07/19  16:50   19.0   19.2   19.0    71   13.6   5.0   SSW   0.42   7.0     S   19.0   19.2   19.2  1018.1  0.00  0.00   0.000   0.002   26.9    49   15.3   26.9   8.94  .0726    117    1    100.0    5 
16/07/19  16:55   18.9   19.0   18.9    72   13.7   5.0     S   0.42   7.0   SSW   18.9   19.1   19.1  1018.0  0.00  0.00   0.000   0.002   26.9    49   15.3   26.9   8.94  .0725    115    1    100.0    5 
16/07/19  17:00   18.9   18.9   18.9    73   14.0   5.0   SSW   0.42   7.0     S   18.9   19.2   19.2  1018.0  0.00  0.00   0.000   0.002   26.9    49   15.3   26.9   8.94  .0725    117    1    100.0    5 
16/07/19  17:05   18.9   18.9   18.9    73   14.0   4.0     S   0.33   6.0     S   18.9   19.2   19.2  1018.0  0.00  0.00   0.000   0.002   26.9    49   15.3   26.9   8.94  .0725    117    1    100.0    5 
16/07/19  17:10   19.1   19.2   18.9    72   13.9   5.0     S   0.42   7.0     S   19.1   19.3   19.3  1017.9  0.00  0.00   0.000   0.003   27.0    49   15.4   27.0   8.94  .0725    117    1    100.0    5 
16/07/19  17:15   18.8   19.1   18.8    72   13.7   5.0   SSW   0.42   7.0   SSW   18.8   19.0   19.0  1017.8  0.00  0.00   0.000   0.002   27.0    49   15.4   27.0   8.94  .0725    117    1    100.0    5 
16/07/19  17:20   18.8   18.8   18.8    73   13.8   5.0   SSW   0.42   7.0   SSW   18.8   18.9   18.9  1017.8  0.00  0.00   0.000   0.002   27.0    49   15.4   27.0   8.94  .0725    116    1    100.0    5 
16/07/19  17:25   18.8   18.9   18.8    73   13.8   5.0   SSW   0.42   7.0   SSW   18.8   18.9   18.9  1017.7  0.00  0.00   0.000   0.002   27.0    49   15.4   27.0   8.94  .0725    117    1    100.0    5 
16/07/19  17:30   18.9   18.9   18.8    73   13.9   5.0   SSW   0.42   7.0   SSW   18.9   19.1   19.1  1017.6  0.00  0.00   0.000   0.002   27.0    49   15.4   27.0   8.94  .0725    117    1    100.0    5 
16/07/19  17:35   18.8   18.9   18.8    73   13.8   5.0   SSW   0.42   7.0   SSW   18.8   18.9   18.9  1017.6  0.00  0.00   0.000   0.002   27.1    49   15.4   27.1   8.94  .0725    117    1    100.0    5 
16/07/19  17:40   18.7   18.8   18.7    73   13.8   3.0     S   0.25   6.0     S   18.7   18.9   18.9  1017.6  0.00  0.00   0.000   0.001   27.0    49   15.4   27.0   8.94  .0725    115    1    100.0    5 
16/07/19  17:45   18.7   18.7   18.7    73   13.7   4.0   SSW   0.33   6.0     S   18.7   18.8   18.8  1017.6  0.00  0.00   0.000   0.001   27.1    48   15.1   27.0   8.84  .0725    117    1    100.0    5 
16/07/19  17:50   18.7   18.7   18.7    74   13.9   4.0   SSW   0.33   6.0   SSW   18.7   18.9   18.9  1017.6  0.00  0.00   0.000   0.001   27.1    49   15.4   27.1   8.94  .0725    117    1    100.0    5 
16/07/19  17:55   18.7   18.7   18.7    74   13.9   4.0     S   0.33   6.0     S   18.7   18.9   18.9  1017.5  0.00  0.00   0.000   0.001   27.1    49   15.5   27.2   8.93  .0725    117    1    100.0    5 
16/07/19  18:00   18.8   18.8   18.7    74   14.1   3.0     S   0.25   6.0   SSW   18.8   19.1   19.1  1017.6  0.00  0.00   0.000   0.002   27.1    49   15.5   27.2   8.93  .0725    117    1    100.0    5 
16/07/19  18:05   18.8   18.8   18.8    74   14.0   4.0   SSW   0.33   7.0   SSW   18.8   19.0   19.0  1017.5  0.00  0.00   0.000   0.002   27.1    49   15.5   27.2   8.93  .0725    116    1    100.0    5 
16/07/19  18:10   18.8   18.8   18.8    73   13.8   3.0   SSW   0.25   5.0   SSW   18.8   18.9   18.9  1017.6  0.00  0.00   0.000   0.002   27.1    48   15.2   27.1   8.83  .0725    117    1    100.0    5 
16/07/19  18:15   18.9   18.9   18.8    73   13.9   3.0   SSW   0.25   6.0   SSW   18.9   19.1   19.1  1017.6  0.00  0.00   0.000   0.002   27.1    48   15.2   27.1   8.83  .0725    117    1    100.0    5 
16/07/19  18:20   18.9   18.9   18.9    74   14.2   3.0   SSW   0.25   5.0   SSW   18.9   19.2   19.2  1017.5  0.00  0.00   0.000   0.002   27.1    48   15.2   27.1   8.83  .0725    117    1    100.0    5 
16/07/19  18:25   19.1   19.1   18.9    73   14.1   2.0   SSW   0.17   6.0   SSW   19.1   19.3   19.3  1017.4  0.00  0.00   0.000   0.003   27.1    48   15.2   27.1   8.83  .0725    117    1    100.0    5 
16/07/19  18:30   19.0   19.1   19.0    73   14.0   2.0   SSW   0.17   5.0   SSW   19.0   19.2   19.2  1017.4  0.00  0.00   0.000   0.002   27.2    48   15.2   27.2   8.83  .0725    117    1    100.0    5 
16/07/19  18:35   19.1   19.1   19.0    73   14.1   2.0   SSW   0.17   5.0   SSW   19.1   19.3   19.3  1017.5  0.00  0.00   0.000   0.003   27.2    48   15.2   27.2   8.83  .0725    117    1    100.0    5 
16/07/19  18:40   19.2   19.2   19.1    73   14.2   1.0   SSW   0.08   4.0   SSW   19.2   19.4   19.4  1017.4  0.00  0.00   0.000   0.003   27.2    48   15.3   27.2   8.83  .0724    117    1    100.0    5 
16/07/19  18:45   19.1   19.2   19.1    72   13.9   2.0   SSW   0.17   5.0   SSW   19.1   19.3   19.3  1017.3  0.00  0.00   0.000   0.003   27.2    48   15.3   27.2   8.83  .0724    115    1    100.0    5 
16/07/19  18:50   18.9   19.1   18.9    72   13.8   1.0   SSW   0.08   4.0   SSW   18.9   19.1   19.1  1017.3  0.00  0.00   0.000   0.002   27.2    48   15.3   27.2   8.83  .0724    117    1    100.0    5 
16/07/19  18:55   18.8   19.0   18.8    72   13.7   1.0   SSW   0.08   5.0     S   18.8   19.0   19.0  1017.3  0.00  0.00   0.000   0.002   27.2    48   15.2   27.2   8.83  .0725    117    1    100.0    5 
16/07/19  19:00   18.7   18.8   18.7    73   13.8   0.0   SSW   0.00   4.0   SSW   18.7   18.9   18.9  1017.2  0.00  0.00   0.000   0.001   27.2    48   15.2   27.2   8.83  .0725    117    1    100.0    5 
16/07/19  19:05   18.6   18.7   18.6    73   13.7   1.0   SSW   0.08   4.0   SSW   18.6   18.8   18.8  1017.3  0.00  0.00   0.000   0.001   27.2    48   15.2   27.2   8.83  .0725    116    1    100.0    5 
16/07/19  19:10   18.5   18.6   18.5    72   13.4   0.0   ---   0.00   0.0   ---   18.5   18.6   18.6  1017.2  0.00  0.00   0.000   0.001   27.2    47   14.9   27.1   8.63  .0725    117    1    100.0    5 
16/07/19  19:15   18.5   18.5   18.4    73   13.6   0.0   ---   0.00   0.0   ---   18.5   18.6   18.6  1017.2  0.00  0.00   0.000   0.001   27.2    47   14.9   27.1   8.63  .0725    116    1    100.0    5 
16/07/19  19:20   18.4   18.5   18.4    73   13.5   0.0     S   0.00   3.0   SSW   18.4   18.6   18.6  1017.3  0.00  0.00   0.000   0.000   27.1    47   14.8   27.0   8.63  .0725    117    1    100.0    5 
16/07/19  19:25   18.3   18.4   18.3    73   13.4   0.0     S   0.00   1.0     S   18.3   18.4   18.4  1017.3  0.00  0.00   0.000   0.000   27.1    47   14.8   27.0   8.63  .0725    117    1    100.0    5 
16/07/19  19:30   18.2   18.3   18.2    73   13.3   0.0   ---   0.00   0.0   ---   18.2   18.3   18.3  1017.3  0.00  0.00   0.000   0.000   27.1    47   14.8   27.0   8.63  .0725    117    1    100.0    5 
16/07/19  19:35   18.2   18.2   18.2    74   13.5   0.0     S   0.00   1.0     S   18.2   18.3   18.3  1017.3  0.00  0.00   0.000   0.000   27.1    47   14.8   27.0   8.63  .0725    117    1    100.0    5 
16/07/19  19:40   18.1   18.2   18.1    74   13.4   0.0   ---   0.00   0.0   ---   18.1   18.2   18.2  1017.3  0.00  0.00   0.001   0.000   27.1    47   14.8   27.0   8.63  .0725    117    1    100.0    5 
16/07/19  19:45   18.1   18.1   18.1    74   13.3   0.0   ---   0.00   0.0   ---   18.1   18.1   18.1  1017.3  0.00  0.00   0.001   0.000   27.2    47   14.9   27.1   8.63  .0725    116    1    100.0    5 
16/07/19  19:50   17.9   18.1   17.9    74   13.2   0.0   ---   0.00   0.0   ---   17.9   18.0   18.0  1017.2  0.00  0.00   0.001   0.000   27.2    47   14.9   27.1   8.63  .0725    116    1    100.0    5 
16/07/19  19:55   17.8   17.9   17.8    74   13.1   0.0   ---   0.00   0.0   ---   17.8   17.9   17.9  1017.2  0.00  0.00   0.002   0.000   27.2    47   14.9   27.1   8.63  .0725    118    1    100.0    5 
16/07/19  20:00   17.7   17.8   17.7    74   13.0   0.0   ---   0.00   0.0   ---   17.7   17.7   17.7  1017.1  0.00  0.00   0.002   0.000   27.2    46   14.5   27.0   8.45  .0725    116    1    100.0    5 
16/07/19  20:05   17.7   17.7   17.6    74   13.0   0.0   ---   0.00   0.0   ---   17.7   17.7   17.7  1017.1  0.00  0.00   0.002   0.000   27.2    46   14.5   27.0   8.45  .0725    117    1    100.0    5 
16/07/19  20:10   17.7   17.7   17.7    75   13.2   0.0   ---   0.00   0.0   ---   17.7   17.8   17.8  1017.0  0.00  0.00   0.002   0.000   27.2    46   14.6   27.1   8.45  .0725    114    1    100.0    5 
16/07/19  20:15   17.6   17.7   17.6    75   13.1   0.0   ---   0.00   0.0   ---   17.6   17.6   17.6  1017.0  0.00  0.00   0.003   0.000   27.2    46   14.6   27.1   8.45  .0725    116    1    100.0    5 
16/07/19  20:20   17.4   17.6   17.4    75   13.0   0.0   ---   0.00   0.0   ---   17.4   17.4   17.4  1017.0  0.00  0.00   0.003   0.000   27.2    46   14.5   27.0   8.45  .0725    115    1    100.0    5 
16/07/19  20:25   17.4   17.4   17.4    75   13.0   0.0   ---   0.00   0.0   ---   17.4   17.4   17.4  1016.9  0.00  0.00   0.003   0.000   27.2    46   14.5   27.0   8.45  .0725    117    1    100.0    5 
16/07/19  20:30   17.4   17.4   17.4    75   12.9   0.0   ---   0.00   0.0   ---   17.4   17.4   17.4  1016.9  0.00  0.00   0.003   0.000   27.1    46   14.5   26.9   8.45  .0725    116    1    100.0    5 
16/07/19  20:35   17.3   17.4   17.3    75   12.9   0.0   ---   0.00   0.0   ---   17.3   17.3   17.3  1016.9  0.00  0.00   0.003   0.000   27.1    46   14.5   26.9   8.45  .0725    117    1    100.0    5 
16/07/19  20:40   17.2   17.3   17.2    75   12.7   0.0   ---   0.00   0.0   ---   17.2   17.2   17.2  1016.9  0.00  0.00   0.004   0.000   27.1    45   14.1   26.8   8.34  .0725    116    1    100.0    5 
16/07/19  20:45   17.3   17.3   17.2    75   12.8   0.0   ---   0.00   0.0   ---   17.3   17.2   17.2  1016.8  0.00  0.00   0.004   0.000   27.1    45   14.1   26.8   8.34  .0725    117    1    100.0    5 
16/07/19  20:50   17.3   17.3   17.3    75   12.8   0.0   ---   0.00   0.0   ---   17.3   17.2   17.2  1016.8  0.00  0.00   0.004   0.000   27.0    46   14.4   26.8   8.45  .0725    117    1    100.0    5 
16/07/19  20:55   17.2   17.3   17.2    75   12.7   0.0   ---   0.00   0.0   ---   17.2   17.2   17.2  1016.8  0.00  0.00   0.004   0.000   26.9    46   14.3   26.8   8.45  .0725    116    1    100.0    5 
16/07/19  21:00   17.3   17.3   17.2    76   13.0   0.0   ---   0.00   0.0   ---   17.3   17.3   17.3  1016.8  0.00  0.00   0.004   0.000   26.9    46   14.3   26.8   8.45  .0725    117    1    100.0    5 
16/07/19  21:05   17.3   17.3   17.3    76   13.0   0.0   ---   0.00   0.0   ---   17.3   17.3   17.3  1016.8  0.00  0.00   0.004   0.000   26.9    46   14.3   26.7   8.45  .0726    117    1    100.0    5 
16/07/19  21:10   17.3   17.3   17.3    76   13.0   0.0   ---   0.00   0.0   ---   17.3   17.3   17.3  1016.9  0.00  0.00   0.004   0.000   26.8    46   14.2   26.7   8.45  .0726    117    1    100.0    5 
16/07/19  21:15   17.3   17.3   17.3    76   13.0   0.0   ---   0.00   0.0   ---   17.3   17.3   17.3  1016.9  0.00  0.00   0.004   0.000   26.8    46   14.2   26.6   8.45  .0726    117    1    100.0    5 
16/07/19  21:20   17.3   17.3   17.2    76   13.0   0.0   ---   0.00   0.0   ---   17.3   17.3   17.3  1017.0  0.00  0.00   0.004   0.000   26.7    46   14.1   26.6   8.45  .0726    117    1    100.0    5 
16/07/19  21:25   17.2   17.3   17.2    76   13.0   0.0   ---   0.00   0.0   ---   17.2   17.2   17.2  1016.9  0.00  0.00   0.004   0.000   26.7    46   14.1   26.5   8.45  .0726    117    1    100.0    5 
16/07/19  21:30   17.2   17.2   17.2    76   13.0   0.0   ---   0.00   0.0   ---   17.2   17.2   17.2  1016.9  0.00  0.00   0.004   0.000   26.7    46   14.1   26.5   8.45  .0726    117    1    100.0    5 
16/07/19  21:35   17.2   17.2   17.2    76   13.0   0.0   ---   0.00   0.0   ---   17.2   17.2   17.2  1017.0  0.00  0.00   0.004   0.000   26.6    46   14.0   26.4   8.45  .0727    116    1    100.0    5 
16/07/19  21:40   17.2   17.2   17.2    76   13.0   0.0     S   0.00   1.0     S   17.2   17.2   17.2  1017.0  0.00  0.00   0.004   0.000   26.6    47   14.3   26.4   8.65  .0727    116    1    100.0    5 
16/07/19  21:45   17.2   17.2   17.2    76   13.0   0.0   ---   0.00   0.0   ---   17.2   17.2   17.2  1017.0  0.00  0.00   0.004   0.000   26.5    47   14.3   26.4   8.66  .0727    116    1    100.0    5 
16/07/19  21:50   17.2   17.2   17.2    76   13.0   0.0   ---   0.00   0.0   ---   17.2   17.2   17.2  1016.9  0.00  0.00   0.004   0.000   26.5    47   14.3   26.4   8.66  .0727    117    1    100.0    5 
16/07/19  21:55   17.2   17.2   17.2    76   12.9   0.0   ---   0.00   0.0   ---   17.2   17.2   17.2  1016.9  0.00  0.00   0.004   0.000   26.4    47   14.2   26.3   8.66  .0727    117    1    100.0    5 
16/07/19  22:00   17.2   17.2   17.1    76   12.9   0.0   ---   0.00   0.0   ---   17.2   17.2   17.2  1017.0  0.00  0.00   0.004   0.000   26.4    47   14.2   26.3   8.66  .0727    117    1    100.0    5 
16/07/19  22:05   17.1   17.2   17.1    76   12.8   0.0   ---   0.00   0.0   ---   17.1   17.1   17.1  1016.9  0.00  0.00   0.004   0.000   26.4    47   14.2   26.3   8.66  .0727    117    1    100.0    5 
16/07/19  22:10   17.1   17.1   17.1    76   12.8   0.0   ---   0.00   0.0   ---   17.1   17.1   17.1  1016.9  0.00  0.00   0.004   0.000   26.4    47   14.2   26.3   8.66  .0727    117    1    100.0    5 
16/07/19  22:15   17.1   17.1   17.1    77   13.0   0.0   ---   0.00   0.0   ---   17.1   17.1   17.1  1016.9  0.00  0.00   0.004   0.000   26.3    47   14.1   26.3   8.66  .0727    115    1    100.0    5 
16/07/19  22:20   17.0   17.1   17.0    77   12.9   0.0   ---   0.00   0.0   ---   17.0   17.0   17.0  1016.9  0.00  0.00   0.005   0.000   26.3    47   14.1   26.3   8.66  .0727    115    1    100.0    5 
16/07/19  22:25   16.9   17.0   16.9    77   12.9   0.0   ---   0.00   0.0   ---   16.9   16.9   16.9  1016.9  0.00  0.00   0.005   0.000   26.3    47   14.1   26.2   8.66  .0727    117    1    100.0    5 
16/07/19  22:30   16.9   16.9   16.9    77   12.9   0.0   ---   0.00   0.0   ---   16.9   16.9   16.9  1016.8  0.00  0.00   0.005   0.000   26.2    48   14.3   26.2   8.87  .0727    117    1    100.0    5 
16/07/19  22:35   16.8   16.9   16.8    77   12.8   0.0   ---   0.00   0.0   ---   16.8   16.8   16.8  1016.8  0.00  0.00   0.005   0.000   26.2    48   14.3   26.2   8.87  .0727    116    1    100.0    5 
16/07/19  22:40   16.8   16.8   16.8    77   12.7   0.0   ---   0.00   0.0   ---   16.8   16.8   16.8  1016.8  0.00  0.00   0.005   0.000   26.1    48   14.2   26.1   8.87  .0728    117    1    100.0    5 
16/07/19  22:45   16.7   16.8   16.7    77   12.6   0.0   ---   0.00   0.0   ---   16.7   16.7   16.7  1016.8  0.00  0.00   0.006   0.000   26.1    48   14.2   26.1   8.87  .0728    117    1    100.0    5 
16/07/19  22:50   16.6   16.7   16.6    77   12.5   0.0   ---   0.00   0.0   ---   16.6   16.5   16.5  1016.8  0.00  0.00   0.006   0.000   26.1    48   14.2   26.1   8.87  .0728    114    1    100.0    5 
16/07/19  22:55   16.5   16.6   16.5    78   12.6   0.0   ---   0.00   0.0   ---   16.5   16.5   16.5  1016.8  0.00  0.00   0.006   0.000   26.0    48   14.1   26.0   8.87  .0728    116    1    100.0    5 
16/07/19  23:00   16.4   16.5   16.4    78   12.6   0.0   ---   0.00   0.0   ---   16.4   16.4   16.4  1016.8  0.00  0.00   0.007   0.000   26.0    48   14.1   26.0   8.87  .0728    116    1    100.0    5 
16/07/19  23:05   16.3   16.4   16.3    78   12.5   0.0   ---   0.00   0.0   ---   16.3   16.3   16.3  1016.8  0.00  0.00   0.007   0.000   25.9    48   14.1   25.9   8.88  .0728    116    1    100.0    5 
16/07/19  23:10   16.3   16.3   16.3    78   12.4   0.0   ---   0.00   0.0   ---   16.3   16.2   16.2  1016.8  0.00  0.00   0.007   0.000   25.9    48   14.0   25.8   8.88  .0728    117    1    100.0    5 
117216